Observation data for Aiken on 05/04/2021      Previous  Date  Next       Current Mesonet Observations  Soil Data  Daily Summary Page  Observations in Plain Language
KAI1 040500Z 01024KT 10/09 A2994 RMK A01 T01030091  RH  092%=      5-min Rain = 0
KAI1 040501Z 01026KT 10/09 A2994 RMK A01 T01030091  RH  092%=      5-min Rain = 0
KAI1 040502Z 01025KT 10/09 A2993 RMK A01 T01030091  RH  092%=      5-min Rain = 0
KAI1 040503Z 02023KT 10/09 A2993 RMK A01 T01030091  RH  092%=      5-min Rain = 0
KAI1 040504Z 01027KT 10/09 A2993 RMK A01 T01030091  RH  092%=      5-min Rain = 0
KAI1 040505Z 02026KT 10/09 A2993 RMK A01 T01030091  RH  092%=      5-min Rain = 0
KAI1 040506Z 02028G33KT 10/09 A2993 RMK A01 T01030090  RH  092%=      5-min Rain = 0
KAI1 040507Z 02028KT 10/09 A2993 RMK A01 T01030090  RH  092%=      5-min Rain = 0
KAI1 040508Z 02027G32KT 10/09 A2993 RMK A01 T01020089  RH  092%=      5-min Rain = 0
KAI1 040509Z 02026KT 10/09 A2993 RMK A01 T01030090  RH  092%=      5-min Rain = 0
KAI1 040510Z 02025KT 10/09 A2993 RMK A01 T01030090  RH  092%=      5-min Rain = 0
KAI1 040511Z 02025G30KT 10/09 A2993 RMK A01 T01030090  RH  092%=      5-min Rain = 0
KAI1 040512Z 02026KT 10/09 A2993 RMK A01 T01030090  RH  092%=      5-min Rain = 0
KAI1 040513Z 02026KT 10/09 A2993 RMK A01 T01030090  RH  092%=      5-min Rain = 0
KAI1 040514Z 02024G31KT 10/09 A2993 RMK A01 T01020090  RH  092%=      5-min Rain = 0
KAI1 040515Z 02026G32KT 10/09 A2993 RMK A01 T01020090  RH  092%=      5-min Rain = 0
KAI1 040516Z 02026G31KT 10/09 A2994 RMK A01 T01020090  RH  092%=      5-min Rain = 0
KAI1 040517Z 02026KT 10/09 A2994 RMK A01 T01020090  RH  092%=      5-min Rain = 0
KAI1 040518Z 02026KT 10/09 A2994 RMK A01 T01020089  RH  092%=      5-min Rain = 0
KAI1 040519Z 02024G31KT 10/09 A2995 RMK A01 T01020089  RH  092%=      5-min Rain = 0
KAI1 040520Z 01027G33KT 10/09 A2995 RMK A01 T01020089  RH  092%=      5-min Rain = 0
KAI1 040521Z 01026KT 10/09 A2995 RMK A01 T01020089  RH  092%=      5-min Rain = 0
KAI1 040522Z 01026KT 10/09 A2995 RMK A01 T01020089  RH  092%=      5-min Rain = 0
KAI1 040523Z 01023KT 10/09 A2995 RMK A01 T01020089  RH  092%=      5-min Rain = 0
KAI1 040524Z 01024G30KT 10/09 A2996 RMK A01 T01020089  RH  092%=      5-min Rain = 0
KAI1 040525Z 01025G30KT 10/09 A2996 RMK A01 T01020089  RH  092%=      5-min Rain = 0
KAI1 040526Z 01025KT 10/09 A2996 RMK A01 T01020089  RH  092%=      5-min Rain = 0
KAI1 040527Z 01026KT 10/09 A2996 RMK A01 T01020089  RH  092%=      5-min Rain = 0
KAI1 040528Z 01024KT 10/09 A2996 RMK A01 T01020089  RH  092%=      5-min Rain = 0
KAI1 040529Z 01024G30KT 10/09 A2996 RMK A01 T01010089  RH  092%=      5-min Rain = 0
KAI1 040530Z 01022KT 10/09 A2996 RMK A01 T01010089  RH  092%=      5-min Rain = 0
KAI1 040531Z 01020KT 10/09 A2996 RMK A01 T01010089  RH  092%=      5-min Rain = 0
KAI1 040532Z 01022KT 10/09 A2996 RMK A01 T01000089  RH  093%=      5-min Rain = 0
KAI1 040533Z 01023KT 10/09 A2996 RMK A01 T01000089  RH  093%=      5-min Rain = 0
KAI1 040534Z 01024KT 10/09 A2996 RMK A01 T01000089  RH  093%=      5-min Rain = 0
KAI1 040535Z 01023G29KT 10/09 A2996 RMK A01 T01000089  RH  093%=      5-min Rain = 0
KAI1 040536Z 01023KT 10/09 A2997 RMK A01 T01000089  RH  093%=      5-min Rain = 0
KAI1 040537Z 01020KT 10/09 A2997 RMK A01 T01000089  RH  093%=      5-min Rain = 0
KAI1 040538Z 01020G25KT 10/09 A2997 RMK A01 T01000089  RH  093%=      5-min Rain = 0
KAI1 040539Z 01018KT 10/09 A2997 RMK A01 T01000089  RH  093%=      5-min Rain = 0
KAI1 040540Z 01021KT 10/09 A2997 RMK A01 T00990089  RH  093%=      5-min Rain = 0
KAI1 040541Z 02020KT 10/09 A2997 RMK A01 T00990089  RH  093%=      5-min Rain = 0
KAI1 040542Z 01023KT 10/09 A2997 RMK A01 T00990089  RH  093%=      5-min Rain = 0
KAI1 040543Z 02022KT 10/09 A2996 RMK A01 T00990088  RH  093%=      5-min Rain = 0
KAI1 040544Z 02024KT 10/09 A2997 RMK A01 T00990088  RH  093%=      5-min Rain = 0
KAI1 040545Z 02022KT 10/09 A2996 RMK A01 T00990088  RH  093%=      5-min Rain = 0
KAI1 040546Z 02021KT 10/09 A2996 RMK A01 T00990088  RH  093%=      5-min Rain = 0
KAI1 040547Z 02022G27KT 10/09 A2996 RMK A01 T00990088  RH  093%=      5-min Rain = 0
KAI1 040548Z 02022KT 10/09 A2996 RMK A01 T00990087  RH  093%=      5-min Rain = 0
KAI1 040549Z 02023G28KT 10/09 A2996 RMK A01 T00990087  RH  092%=      5-min Rain = 0
KAI1 040550Z 02024G29KT 10/09 A2996 RMK A01 T01000087  RH  092%=      5-min Rain = 0
KAI1 040551Z 02025KT 10/09 A2996 RMK A01 T00990087  RH  092%=      5-min Rain = 0
KAI1 040552Z 02023KT 10/09 A2997 RMK A01 T00990086  RH  092%=      5-min Rain = 0
KAI1 040553Z 02021KT 10/09 A2997 RMK A01 T00990086  RH  092%=      5-min Rain = 0
KAI1 040554Z 02022KT 10/09 A2997 RMK A01 T00990087  RH  092%=      5-min Rain = 0
KAI1 040555Z 02021KT 10/09 A2997 RMK A01 T00990087  RH  092%=      5-min Rain = 0
KAI1 040556Z 01018G23KT 10/09 A2997 RMK A01 T00990087  RH  092%=      5-min Rain = 0
KAI1 040557Z 01020KT 10/09 A2998 RMK A01 T00990087  RH  092%=      5-min Rain = 0
KAI1 040558Z 36020KT 10/09 A2998 RMK A01 T00990087  RH  092%=      5-min Rain = 0
KAI1 040559Z 34021KT 10/09 A2999 RMK A01 T00990087  RH  092%=      5-min Rain = 0
KAI1 040600Z 34021G26KT 10/09 A2999 RMK A01 T00980087  RH  092%=      5-min Rain = 0
KAI1 040601Z 34022KT 10/09 A2999 RMK A01 T00990087  RH  092%=      5-min Rain = 0
KAI1 040602Z 34023KT 10/09 A2999 RMK A01 T00990087  RH  092%=      5-min Rain = 0
KAI1 040603Z 35023KT 10/09 A2999 RMK A01 T00990087  RH  092%=      5-min Rain = 0
KAI1 040604Z 35020KT 10/09 A2999 RMK A01 T00990087  RH  092%=      5-min Rain = 0
KAI1 040605Z 35021KT 10/09 A2999 RMK A01 T01000087  RH  092%=      5-min Rain = 0
KAI1 040606Z 35021KT 10/09 A2999 RMK A01 T01000087  RH  092%=      5-min Rain = 0
KAI1 040607Z 36021KT 10/09 A2999 RMK A01 T00990087  RH  092%=      5-min Rain = 0
KAI1 040608Z 35023KT 10/09 A2999 RMK A01 T00990087  RH  092%=      5-min Rain = 0
KAI1 040609Z 35022KT 10/09 A2999 RMK A01 T00990087  RH  092%=      5-min Rain = 0
KAI1 040610Z 35023G29KT 10/09 A2999 RMK A01 T00990086  RH  092%=      5-min Rain = 0
KAI1 040611Z 35024KT 10/09 A2999 RMK A01 T00990086  RH  092%=      5-min Rain = 0
KAI1 040612Z 36022KT 10/09 A2999 RMK A01 T00990086  RH  092%=      5-min Rain = 0
KAI1 040613Z 35023G28KT 10/09 A2999 RMK A01 T00980085  RH  092%=      5-min Rain = 0
KAI1 040614Z 35024KT 10/09 A2999 RMK A01 T00990085  RH  091%=      5-min Rain = 0
KAI1 040615Z 35022KT 10/09 A30 RMK A01 T00990085  RH  091%=      5-min Rain = 0
KAI1 040616Z 36022KT 10/09 A30 RMK A01 T00980085  RH  092%=      5-min Rain = 0
KAI1 040617Z 36023KT 10/09 A30 RMK A01 T00980085  RH  092%=      5-min Rain = 0
KAI1 040618Z 36023KT 10/09 A30 RMK A01 T00980085  RH  092%=      5-min Rain = 0
KAI1 040619Z 36019KT 10/09 A30 RMK A01 T00980086  RH  092%=      5-min Rain = 0
KAI1 040620Z 00020G26KT 10/09 A30 RMK A01 T00980086  RH  092%=      5-min Rain = 0
KAI1 040621Z 00023KT 10/09 A30 RMK A01 T00980086  RH  092%=      5-min Rain = 0
KAI1 040622Z 01022KT 10/09 A30 RMK A01 T00980085  RH  092%=      5-min Rain = 0
KAI1 040623Z 01021KT 10/09 A30 RMK A01 T00980085  RH  092%=      5-min Rain = 0
KAI1 040624Z 00019KT 10/09 A2999 RMK A01 T00970085  RH  092%=      5-min Rain = 0
KAI1 040625Z 00019KT 10/09 A2999 RMK A01 T00970085  RH  093%=      5-min Rain = 0
KAI1 040626Z 01019KT 10/09 A2999 RMK A01 T00970086  RH  093%=      5-min Rain = 0
KAI1 040627Z 00019KT 10/09 A2999 RMK A01 T00970086  RH  093%=      5-min Rain = 0
KAI1 040628Z 01020KT 10/09 A2999 RMK A01 T00970086  RH  093%=      5-min Rain = 0
KAI1 040629Z 00023KT 10/09 A2999 RMK A01 T00970086  RH  093%=      5-min Rain = 0
KAI1 040630Z 00022G27KT 10/09 A2999 RMK A01 T00970085  RH  092%=      5-min Rain = 0
KAI1 040631Z 01020KT 10/09 A2999 RMK A01 T00970085  RH  092%=      5-min Rain = 0
KAI1 040632Z 00022KT 10/09 A2999 RMK A01 T00970086  RH  092%=      5-min Rain = 0
KAI1 040633Z 01023KT 10/09 A2999 RMK A01 T00970085  RH  092%=      5-min Rain = 0
KAI1 040634Z 01023KT 10/08 A2999 RMK A01 T00970084  RH  092%=      5-min Rain = 0
KAI1 040635Z 00022KT 10/08 A30 RMK A01 T00970084  RH  092%=      5-min Rain = 0
KAI1 040636Z 00021KT 10/08 A30 RMK A01 T00970084  RH  092%=      5-min Rain = 0
KAI1 040637Z 00021G26KT 10/08 A30 RMK A01 T00970084  RH  091%=      5-min Rain = 0
KAI1 040638Z 01019KT 10/08 A30 RMK A01 T00970084  RH  091%=      5-min Rain = 0
KAI1 040639Z 01020KT 10/08 A30 RMK A01 T00970084  RH  092%=      5-min Rain = 0
KAI1 040640Z 00022KT 10/08 A30 RMK A01 T00970084  RH  092%=      5-min Rain = 0
KAI1 040641Z 00018KT 10/08 A30 RMK A01 T00970084  RH  092%=      5-min Rain = 0
KAI1 040642Z 01019KT 10/08 A30 RMK A01 T00970084  RH  092%=      5-min Rain = 0
KAI1 040643Z 01022KT 10/08 A30 RMK A01 T00970084  RH  092%=      5-min Rain = 0
KAI1 040644Z 00021KT 10/08 A30 RMK A01 T00960083  RH  092%=      5-min Rain = 0
KAI1 040645Z 00020KT 10/08 A30 RMK A01 T00970084  RH  092%=      5-min Rain = 0
KAI1 040646Z 01018KT 10/08 A30 RMK A01 T00970084  RH  092%=      5-min Rain = 0
KAI1 040647Z 00021KT 10/08 A30 RMK A01 T00970084  RH  092%=      5-min Rain = 0
KAI1 040648Z 01019KT 10/08 A30 RMK A01 T00970084  RH  092%=      5-min Rain = 0
KAI1 040649Z 01019KT 10/08 A30 RMK A01 T00970084  RH  092%=      5-min Rain = 0
KAI1 040650Z 00019KT 10/08 A30 RMK A01 T00970084  RH  092%=      5-min Rain = 0
KAI1 040651Z 00018G23KT 10/09 A30 RMK A01 T00970085  RH  092%=      5-min Rain = 0
KAI1 040652Z 00020KT 10/08 A30 RMK A01 T00960084  RH  092%=      5-min Rain = 0
KAI1 040653Z 01018KT 10/08 A30 RMK A01 T00960084  RH  092%=      5-min Rain = 0
KAI1 040654Z 00018KT 10/09 A30 RMK A01 T00960085  RH  092%=      5-min Rain = 0
KAI1 040655Z 00020KT 10/09 A30 RMK A01 T00960085  RH  093%=      5-min Rain = 0
KAI1 040656Z 01017G22KT 10/09 A30 RMK A01 T00970085  RH  092%=      5-min Rain = 0
KAI1 040657Z 00021KT 10/08 A30 RMK A01 T00960084  RH  092%=      5-min Rain = 0
KAI1 040658Z 01023KT 10/08 A30 RMK A01 T00960084  RH  092%=      5-min Rain = 0
KAI1 040659Z 36021KT 10/08 A30 RMK A01 T00960083  RH  091%=      5-min Rain = 0
KAI1 040700Z 00024KT 10/08 A30 RMK A01 T00960083  RH  091%=      5-min Rain = 0
KAI1 040701Z 00021KT 10/08 A30 RMK A01 T00960082  RH  091%=      5-min Rain = 0
KAI1 040702Z 01020KT 10/08 A30 RMK A01 T00960082  RH  091%=      5-min Rain = 0
KAI1 040703Z 00022KT 10/08 A30 RMK A01 T00960083  RH  091%=      5-min Rain = 0
KAI1 040704Z 00021KT 10/08 A30 RMK A01 T00960083  RH  091%=      5-min Rain = 0
KAI1 040705Z 36021KT 10/08 A30 RMK A01 T00960083  RH  091%=      5-min Rain = 0
KAI1 040706Z 00018G24KT 10/08 A30 RMK A01 T00960083  RH  091%=      5-min Rain = 0
KAI1 040707Z 00022KT 10/08 A30 RMK A01 T00960083  RH  091%=      5-min Rain = 0
KAI1 040708Z 00023KT 10/08 A30 RMK A01 T00960083  RH  091%=      5-min Rain = 0
KAI1 040709Z 00021KT 10/08 A30 RMK A01 T00960082  RH  091%=      5-min Rain = 0
KAI1 040710Z 00024KT 10/08 A30 RMK A01 T00960082  RH  091%=      5-min Rain = 0
KAI1 040711Z 00022KT 10/08 A30 RMK A01 T00960082  RH  091%=      5-min Rain = 0
KAI1 040712Z 00023KT 10/08 A30 RMK A01 T00960082  RH  091%=      5-min Rain = 0
KAI1 040713Z 36023G29KT 10/08 A30 RMK A01 T00960082  RH  091%=      5-min Rain = 0
KAI1 040714Z 00021KT 10/08 A30 RMK A01 T00960082  RH  091%=      5-min Rain = 0
KAI1 040715Z 00021G26KT 10/08 A30 RMK A01 T00960082  RH  091%=      5-min Rain = 0
KAI1 040716Z 00020KT 10/08 A30 RMK A01 T00960082  RH  091%=      5-min Rain = 0
KAI1 040717Z 36024G31KT 10/08 A30 RMK A01 T00960082  RH  091%=      5-min Rain = 0
KAI1 040718Z 00025KT 10/08 A30 RMK A01 T00960081  RH  090%=      5-min Rain = 0
KAI1 040719Z 00023KT 10/08 A30 RMK A01 T00960081  RH  090%=      5-min Rain = 0
KAI1 040720Z 00023KT 10/08 A30 RMK A01 T00960081  RH  090%=      5-min Rain = 0
KAI1 040721Z 00023KT 10/08 A30 RMK A01 T00960081  RH  090%=      5-min Rain = 0
KAI1 040722Z 00022KT 10/08 A30 RMK A01 T00960081  RH  091%=      5-min Rain = 0
KAI1 040723Z 00022G28KT 10/08 A30 RMK A01 T00960081  RH  091%=      5-min Rain = 0
KAI1 040724Z 00022KT 10/08 A30 RMK A01 T00960082  RH  091%=      5-min Rain = 0
KAI1 040725Z 00021KT 10/08 A30 RMK A01 T00960081  RH  091%=      5-min Rain = 0
KAI1 040726Z 00020KT 10/08 A30 RMK A01 T00960081  RH  091%=      5-min Rain = 0
KAI1 040727Z 01021KT 10/08 A30 RMK A01 T00960082  RH  091%=      5-min Rain = 0
KAI1 040728Z 01020KT 10/08 A30 RMK A01 T00950082  RH  091%=      5-min Rain = 0
KAI1 040729Z 01019KT 10/08 A30 RMK A01 T00950082  RH  091%=      5-min Rain = 0
KAI1 040730Z 01021G26KT 10/08 A30 RMK A01 T00950082  RH  091%=      5-min Rain = 0
KAI1 040731Z 00021KT 10/08 A30 RMK A01 T00950082  RH  091%=      5-min Rain = 0
KAI1 040732Z 01021KT 10/08 A30 RMK A01 T00950082  RH  091%=      5-min Rain = 0
KAI1 040733Z 01021G26KT 10/08 A30 RMK A01 T00950082  RH  091%=      5-min Rain = 0
KAI1 040734Z 01022KT 10/08 A30 RMK A01 T00950082  RH  091%=      5-min Rain = 0
KAI1 040735Z 01020KT 10/08 A30 RMK A01 T00950081  RH  091%=      5-min Rain = 0
KAI1 040736Z 00020KT 10/08 A30 RMK A01 T00950082  RH  091%=      5-min Rain = 0
KAI1 040737Z 01021G26KT 10/08 A30 RMK A01 T00950081  RH  091%=      5-min Rain = 0
KAI1 040738Z 00024KT 10/08 A30 RMK A01 T00960080  RH  090%=      5-min Rain = 0
KAI1 040739Z 00021KT 10/08 A30 RMK A01 T00960080  RH  090%=      5-min Rain = 0
KAI1 040740Z 36021KT 10/08 A30 RMK A01 T00960081  RH  090%=      5-min Rain = 0
KAI1 040741Z 00019G24KT 10/08 A30 RMK A01 T00960081  RH  090%=      5-min Rain = 0
KAI1 040742Z 00021KT 10/08 A30 RMK A01 T00960081  RH  091%=      5-min Rain = 0
KAI1 040743Z 36021KT 10/08 A30 RMK A01 T00960081  RH  091%=      5-min Rain = 0
KAI1 040744Z 00022KT 10/08 A30 RMK A01 T00960081  RH  090%=      5-min Rain = 0
KAI1 040745Z 00020KT 10/08 A30 RMK A01 T00960081  RH  091%=      5-min Rain = 0
KAI1 040746Z 01022KT 10/08 A30 RMK A01 T00960081  RH  091%=      5-min Rain = 0
KAI1 040747Z 01023KT 10/08 A30 RMK A01 T00960081  RH  090%=      5-min Rain = 0
KAI1 040748Z 01022KT 10/08 A30 RMK A01 T00960080  RH  090%=      5-min Rain = 0
KAI1 040749Z 01020KT 10/08 A30 RMK A01 T00960080  RH  090%=      5-min Rain = 0
KAI1 040750Z 01020KT 10/08 A30 RMK A01 T00960081  RH  090%=      5-min Rain = 0
KAI1 040751Z 01017G22KT 10/08 A30 RMK A01 T00960082  RH  091%=      5-min Rain = 0
KAI1 040752Z 01021KT 10/08 A3001 RMK A01 T00950082  RH  091%=      5-min Rain = 0
KAI1 040753Z 01020KT 10/08 A3001 RMK A01 T00950081  RH  091%=      5-min Rain = 0
KAI1 040754Z 01020KT 10/08 A3001 RMK A01 T00950081  RH  091%=      5-min Rain = 0
KAI1 040755Z 01020G27KT 10/08 A3001 RMK A01 T00950081  RH  091%=      5-min Rain = 0
KAI1 040756Z 00021KT 10/08 A3001 RMK A01 T00950081  RH  091%=      5-min Rain = 0
KAI1 040757Z 00022KT 10/08 A3001 RMK A01 T00950080  RH  091%=      5-min Rain = 0
KAI1 040758Z 01021KT 10/08 A3001 RMK A01 T00950080  RH  090%=      5-min Rain = 0
KAI1 040759Z 00020KT 10/08 A3001 RMK A01 T00950080  RH  090%=      5-min Rain = 0
KAI1 040800Z 01021KT 10/08 A3001 RMK A01 T00950080  RH  091%=      5-min Rain = 0
KAI1 040801Z 00023KT 10/08 A3001 RMK A01 T00950080  RH  091%=      5-min Rain = 0
KAI1 040802Z 00023KT 10/08 A3001 RMK A01 T00950080  RH  090%=      5-min Rain = 0
KAI1 040803Z 00021KT 09/08 A3001 RMK A01 T00940079  RH  090%=      5-min Rain = 0
KAI1 040804Z 01022KT 09/08 A3001 RMK A01 T00940079  RH  090%=      5-min Rain = 0
KAI1 040805Z 01020KT 09/08 A3001 RMK A01 T00940079  RH  090%=      5-min Rain = 0
KAI1 040806Z 01020G25KT 09/08 A3001 RMK A01 T00940080  RH  090%=      5-min Rain = 0
KAI1 040807Z 00017KT 09/08 A3001 RMK A01 T00940080  RH  091%=      5-min Rain = 0
KAI1 040808Z 00020KT 10/08 A3001 RMK A01 T00950081  RH  091%=      5-min Rain = 0
KAI1 040809Z 36018KT 09/08 A3001 RMK A01 T00940080  RH  091%=      5-min Rain = 0
KAI1 040810Z 00022KT 09/08 A3001 RMK A01 T00940081  RH  091%=      5-min Rain = 0
KAI1 040811Z 00021KT 09/08 A3001 RMK A01 T00940080  RH  091%=      5-min Rain = 0
KAI1 040812Z 00020KT 09/08 A3001 RMK A01 T00940080  RH  091%=      5-min Rain = 0
KAI1 040813Z 00020KT 09/08 A3001 RMK A01 T00940080  RH  091%=      5-min Rain = 0
KAI1 040814Z 00020KT 09/08 A3001 RMK A01 T00940080  RH  091%=      5-min Rain = 0
KAI1 040815Z 00020KT 09/08 A3001 RMK A01 T00940080  RH  091%=      5-min Rain = 0
KAI1 040816Z 01019KT 09/08 A3001 RMK A01 T00940079  RH  091%=      5-min Rain = 0
KAI1 040817Z 01020KT 09/08 A3001 RMK A01 T00940079  RH  091%=      5-min Rain = 0
KAI1 040818Z 00020KT 09/08 A3001 RMK A01 T00940079  RH  091%=      5-min Rain = 0
KAI1 040819Z 01019KT 09/08 A3001 RMK A01 T00940080  RH  091%=      5-min Rain = 0
KAI1 040820Z 00018KT 09/08 A3001 RMK A01 T00930079  RH  091%=      5-min Rain = 0
KAI1 040821Z 01019KT 09/08 A3001 RMK A01 T00930080  RH  091%=      5-min Rain = 0
KAI1 040822Z 01020KT 09/08 A3001 RMK A01 T00930080  RH  091%=      5-min Rain = 0
KAI1 040823Z 01018G23KT 09/08 A3001 RMK A01 T00930080  RH  091%=      5-min Rain = 0
KAI1 040824Z 00016KT 09/08 A3001 RMK A01 T00920079  RH  092%=      5-min Rain = 0
KAI1 040825Z 01015KT 09/08 A3001 RMK A01 T00930080  RH  092%=      5-min Rain = 0
KAI1 040826Z 00016KT 09/08 A3001 RMK A01 T00920080  RH  092%=      5-min Rain = 0
KAI1 040827Z 00017KT 09/08 A3001 RMK A01 T00920080  RH  093%=      5-min Rain = 0
KAI1 040828Z 01015KT 09/08 A3001 RMK A01 T00920080  RH  093%=      5-min Rain = 0
KAI1 040829Z 00018KT 09/08 A3001 RMK A01 T00920080  RH  093%=      5-min Rain = 0
KAI1 040830Z 01017KT 09/08 A3001 RMK A01 T00920080  RH  093%=      5-min Rain = 0
KAI1 040831Z 00017KT 09/08 A3001 RMK A01 T00920080  RH  093%=      5-min Rain = 0
KAI1 040832Z 01018KT 09/08 A3001 RMK A01 T00920080  RH  092%=      5-min Rain = 0
KAI1 040833Z 01017KT 09/08 A3001 RMK A01 T00920080  RH  092%=      5-min Rain = 0
KAI1 040834Z 01017KT 09/08 A3001 RMK A01 T00920080  RH  092%=      5-min Rain = 0
KAI1 040835Z 01017KT 09/08 A3001 RMK A01 T00920079  RH  092%=      5-min Rain = 0
KAI1 040836Z 01016KT 09/08 A3001 RMK A01 T00910079  RH  092%=      5-min Rain = 0
KAI1 040837Z 01015KT 09/08 A3001 RMK A01 T00920080  RH  092%=      5-min Rain = 0
KAI1 040838Z 01017KT 09/08 A3001 RMK A01 T00910079  RH  092%=      5-min Rain = 0
KAI1 040839Z 01018KT 09/08 A3001 RMK A01 T00910079  RH  092%=      5-min Rain = 0
KAI1 040840Z 01016KT 09/08 A3001 RMK A01 T00910079  RH  092%=      5-min Rain = 0
KAI1 040841Z 01018KT 09/08 A3001 RMK A01 T00910079  RH  093%=      5-min Rain = 0
KAI1 040842Z 01017KT 09/08 A3001 RMK A01 T00910079  RH  092%=      5-min Rain = 0
KAI1 040843Z 01019KT 09/08 A3001 RMK A01 T00910079  RH  092%=      5-min Rain = 0
KAI1 040844Z 01019KT 09/08 A3001 RMK A01 T00910079  RH  092%=      5-min Rain = 0
KAI1 040845Z 01020KT 09/08 A3001 RMK A01 T00910078  RH  092%=      5-min Rain = 0
KAI1 040846Z 01018KT 09/08 A3001 RMK A01 T00910078  RH  091%=      5-min Rain = 0
KAI1 040847Z 01019KT 09/08 A3001 RMK A01 T00910078  RH  091%=      5-min Rain = 0
KAI1 040848Z 01019KT 09/08 A3001 RMK A01 T00910078  RH  091%=      5-min Rain = 0
KAI1 040849Z 01019KT 09/08 A3001 RMK A01 T00910077  RH  091%=      5-min Rain = 0
KAI1 040850Z 01019KT 09/08 A3001 RMK A01 T00910078  RH  091%=      5-min Rain = 0
KAI1 040851Z 01017KT 09/08 A3001 RMK A01 T00910078  RH  091%=      5-min Rain = 0
KAI1 040852Z 01019KT 09/08 A3001 RMK A01 T00910077  RH  091%=      5-min Rain = 0
KAI1 040853Z 01018KT 09/08 A3001 RMK A01 T00910077  RH  091%=      5-min Rain = 0
KAI1 040854Z 01020KT 09/08 A3001 RMK A01 T00910077  RH  091%=      5-min Rain = 0
KAI1 040855Z 01018KT 09/08 A3001 RMK A01 T00900076  RH  091%=      5-min Rain = 0
KAI1 040856Z 01015G21KT 09/08 A3001 RMK A01 T00900076  RH  091%=      5-min Rain = 0
KAI1 040857Z 01018KT 09/08 A3002 RMK A01 T00900076  RH  091%=      5-min Rain = 0
KAI1 040858Z 01016KT 09/08 A3002 RMK A01 T00900076  RH  091%=      5-min Rain = 0
KAI1 040859Z 01019KT 09/08 A3002 RMK A01 T00900076  RH  091%=      5-min Rain = 0
KAI1 040900Z 01017KT 09/08 A3002 RMK A01 T00890076  RH  091%=      5-min Rain = 0
KAI1 040901Z 01017KT 09/08 A3002 RMK A01 T00900076  RH  091%=      5-min Rain = 0
KAI1 040902Z 00015KT 09/08 A3002 RMK A01 T00890076  RH  091%=      5-min Rain = 0
KAI1 040903Z 01018KT 09/08 A3002 RMK A01 T00890076  RH  091%=      5-min Rain = 0
KAI1 040904Z 01018KT 09/08 A3002 RMK A01 T00900076  RH  091%=      5-min Rain = 0
KAI1 040905Z 00017KT 09/08 A3002 RMK A01 T00890075  RH  091%=      5-min Rain = 0
KAI1 040906Z 00018KT 09/08 A3002 RMK A01 T00900076  RH  091%=      5-min Rain = 0
KAI1 040907Z 01018KT 09/08 A3002 RMK A01 T00900075  RH  091%=      5-min Rain = 0
KAI1 040908Z 01017KT 09/08 A3002 RMK A01 T00900075  RH  091%=      5-min Rain = 0
KAI1 040909Z 01016KT 09/08 A3002 RMK A01 T00900076  RH  091%=      5-min Rain = 0
KAI1 040910Z 01015KT 09/08 A3002 RMK A01 T00900076  RH  091%=      5-min Rain = 0
KAI1 040911Z 01015KT 09/08 A3003 RMK A01 T00900076  RH  091%=      5-min Rain = 0
KAI1 040912Z 01015KT 09/08 A3003 RMK A01 T00900076  RH  091%=      5-min Rain = 0
KAI1 040913Z 00014KT 09/08 A3003 RMK A01 T00900076  RH  091%=      5-min Rain = 0
KAI1 040914Z 01014KT 09/08 A3003 RMK A01 T00900076  RH  091%=      5-min Rain = 0
KAI1 040915Z 00017KT 09/08 A3003 RMK A01 T00900076  RH  091%=      5-min Rain = 0
KAI1 040916Z 36014KT 09/08 A3003 RMK A01 T00900076  RH  091%=      5-min Rain = 0
KAI1 040917Z 36013KT 09/08 A3003 RMK A01 T00900076  RH  091%=      5-min Rain = 0
KAI1 040918Z 00014KT 09/08 A3003 RMK A01 T00900076  RH  091%=      5-min Rain = 0
KAI1 040919Z 00014KT 09/08 A3003 RMK A01 T00900077  RH  091%=      5-min Rain = 0
KAI1 040920Z 36015KT 09/08 A3003 RMK A01 T00900077  RH  091%=      5-min Rain = 0
KAI1 040921Z 36015KT 09/08 A3003 RMK A01 T00900076  RH  091%=      5-min Rain = 0
KAI1 040922Z 00014KT 09/08 A3003 RMK A01 T00900076  RH  091%=      5-min Rain = 0
KAI1 040923Z 36014KT 09/08 A3003 RMK A01 T00900077  RH  091%=      5-min Rain = 0
KAI1 040924Z 00012KT 09/08 A3004 RMK A01 T00900077  RH  091%=      5-min Rain = 0
KAI1 040925Z 00014KT 09/08 A3004 RMK A01 T00910077  RH  091%=      5-min Rain = 0
KAI1 040926Z 00015KT 09/08 A3004 RMK A01 T00900077  RH  091%=      5-min Rain = 0
KAI1 040927Z 01016KT 09/08 A3004 RMK A01 T00900076  RH  091%=      5-min Rain = 0
KAI1 040928Z 01015KT 09/08 A3004 RMK A01 T00900076  RH  091%=      5-min Rain = 0
KAI1 040929Z 01016KT 09/08 A3004 RMK A01 T00910076  RH  091%=      5-min Rain = 0
KAI1 040930Z 01016KT 09/08 A3003 RMK A01 T00900076  RH  090%=      5-min Rain = 0
KAI1 040931Z 01016KT 09/08 A3003 RMK A01 T00910076  RH  090%=      5-min Rain = 0
KAI1 040932Z 01017KT 09/08 A3003 RMK A01 T00910076  RH  090%=      5-min Rain = 0
KAI1 040933Z 01016KT 09/08 A3003 RMK A01 T00910075  RH  090%=      5-min Rain = 0
KAI1 040934Z 01017KT 09/08 A3003 RMK A01 T00910076  RH  090%=      5-min Rain = 0
KAI1 040935Z 01016KT 09/08 A3003 RMK A01 T00910076  RH  090%=      5-min Rain = 0
KAI1 040936Z 01014KT 09/08 A3003 RMK A01 T00910076  RH  090%=      5-min Rain = 0
KAI1 040937Z 01015KT 09/08 A3003 RMK A01 T00910076  RH  091%=      5-min Rain = 0
KAI1 040938Z 01013KT 09/08 A3003 RMK A01 T00910077  RH  091%=      5-min Rain = 0
KAI1 040939Z 01016KT 09/08 A3003 RMK A01 T00910077  RH  091%=      5-min Rain = 0
KAI1 040940Z 01014KT 09/08 A3004 RMK A01 T00910077  RH  091%=      5-min Rain = 0
KAI1 040941Z 01017KT 09/08 A3004 RMK A01 T00910077  RH  091%=      5-min Rain = 0
KAI1 040942Z 01015KT 09/08 A3004 RMK A01 T00910076  RH  091%=      5-min Rain = 0
KAI1 040943Z 01014KT 09/08 A3004 RMK A01 T00910076  RH  091%=      5-min Rain = 0
KAI1 040944Z 00014KT 09/08 A3004 RMK A01 T00910076  RH  091%=      5-min Rain = 0
KAI1 040945Z 01014KT 09/08 A3004 RMK A01 T00910077  RH  091%=      5-min Rain = 0
KAI1 040946Z 00011KT 09/08 A3004 RMK A01 T00910077  RH  091%=      5-min Rain = 0
KAI1 040947Z 00014KT 09/08 A3004 RMK A01 T00910077  RH  091%=      5-min Rain = 0
KAI1 040948Z 36014KT 09/08 A3004 RMK A01 T00910077  RH  091%=      5-min Rain = 0
KAI1 040949Z 00014KT 09/08 A3004 RMK A01 T00910077  RH  091%=      5-min Rain = 0
KAI1 040950Z 01014KT 09/08 A3004 RMK A01 T00910077  RH  091%=      5-min Rain = 0
KAI1 040951Z 01014KT 09/08 A3004 RMK A01 T00910077  RH  091%=      5-min Rain = 0
KAI1 040952Z 01014KT 09/08 A3005 RMK A01 T00910077  RH  091%=      5-min Rain = 0
KAI1 040953Z 01012KT 09/08 A3005 RMK A01 T00910077  RH  091%=      5-min Rain = 0
KAI1 040954Z 00016KT 09/08 A3005 RMK A01 T00910077  RH  091%=      5-min Rain = 0
KAI1 040955Z 00016KT 09/08 A3005 RMK A01 T00910076  RH  090%=      5-min Rain = 0
KAI1 040956Z 01014KT 09/08 A3005 RMK A01 T00910075  RH  090%=      5-min Rain = 0
KAI1 040957Z 01015KT 09/08 A3005 RMK A01 T00910076  RH  090%=      5-min Rain = 0
KAI1 040958Z 01015KT 09/08 A3005 RMK A01 T00910076  RH  090%=      5-min Rain = 0
KAI1 040959Z 01014KT 09/08 A3005 RMK A01 T00910076  RH  090%=      5-min Rain = 0
KAI1 041000Z 01013KT 09/08 A3005 RMK A01 T00910076  RH  090%=      5-min Rain = 0
KAI1 041001Z 01013KT 09/08 A3005 RMK A01 T00910076  RH  091%=      5-min Rain = 0
KAI1 041002Z 01015KT 09/08 A3005 RMK A01 T00910076  RH  091%=      5-min Rain = 0
KAI1 041003Z 00013KT 09/08 A3005 RMK A01 T00910076  RH  090%=      5-min Rain = 0
KAI1 041004Z 00014KT 09/08 A3005 RMK A01 T00910076  RH  091%=      5-min Rain = 0
KAI1 041005Z 00013KT 09/08 A3005 RMK A01 T00910076  RH  091%=      5-min Rain = 0
KAI1 041006Z 00012KT 09/08 A3005 RMK A01 T00910076  RH  091%=      5-min Rain = 0
KAI1 041007Z 00013KT 09/08 A3005 RMK A01 T00910076  RH  091%=      5-min Rain = 0
KAI1 041008Z 01013KT 09/08 A3005 RMK A01 T00910077  RH  091%=      5-min Rain = 0
KAI1 041009Z 00012KT 09/08 A3005 RMK A01 T00910077  RH  091%=      5-min Rain = 0
KAI1 041010Z 36014KT 09/08 A3005 RMK A01 T00910077  RH  091%=      5-min Rain = 0
KAI1 041011Z 00014KT 09/08 A3006 RMK A01 T00910077  RH  091%=      5-min Rain = 0
KAI1 041012Z 36013KT 09/08 A3006 RMK A01 T00910076  RH  091%=      5-min Rain = 0
KAI1 041013Z 36012KT 09/08 A3006 RMK A01 T00910077  RH  091%=      5-min Rain = 0
KAI1 041014Z 36013KT 09/08 A3006 RMK A01 T00910077  RH  091%=      5-min Rain = 0
KAI1 041015Z 35015KT 09/08 A3006 RMK A01 T00910077  RH  091%=      5-min Rain = 0
KAI1 041016Z 35013KT 09/08 A3006 RMK A01 T00910077  RH  091%=      5-min Rain = 0
KAI1 041017Z 35012KT 09/08 A3006 RMK A01 T00910077  RH  091%=      5-min Rain = 0
KAI1 041018Z 36013KT 09/08 A3006 RMK A01 T00910077  RH  091%=      5-min Rain = 0
KAI1 041019Z 35012KT 09/08 A3006 RMK A01 T00900077  RH  091%=      5-min Rain = 0
KAI1 041020Z 35013KT 09/08 A3006 RMK A01 T00900077  RH  091%=      5-min Rain = 0
KAI1 041021Z 35013KT 09/08 A3006 RMK A01 T00900077  RH  091%=      5-min Rain = 0
KAI1 041022Z 35013KT 09/08 A3006 RMK A01 T00910077  RH  091%=      5-min Rain = 0
KAI1 041023Z 35014KT 09/08 A3006 RMK A01 T00900077  RH  091%=      5-min Rain = 0
KAI1 041024Z 35014KT 09/08 A3006 RMK A01 T00900076  RH  091%=      5-min Rain = 0
KAI1 041025Z 36013KT 09/08 A3006 RMK A01 T00900076  RH  091%=      5-min Rain = 0
KAI1 041026Z 35013KT 09/08 A3006 RMK A01 T00900077  RH  091%=      5-min Rain = 0
KAI1 041027Z 35015KT 09/08 A3006 RMK A01 T00900077  RH  091%=      5-min Rain = 0
KAI1 041028Z 35014KT 09/08 A3006 RMK A01 T00900076  RH  091%=      5-min Rain = 0
KAI1 041029Z 35012KT 09/08 A3006 RMK A01 T00900076  RH  091%=      5-min Rain = 0
KAI1 041030Z 35012KT 09/08 A3006 RMK A01 T00900077  RH  091%=      5-min Rain = 0
KAI1 041031Z 35011KT 09/08 A3007 RMK A01 T00900077  RH  091%=      5-min Rain = 0
KAI1 041032Z 35010KT 09/08 A3007 RMK A01 T00900077  RH  091%=      5-min Rain = 0
KAI1 041033Z 35012KT 09/08 A3007 RMK A01 T00900077  RH  092%=      5-min Rain = 0
KAI1 041034Z 35014KT 09/08 A3007 RMK A01 T00900076  RH  091%=      5-min Rain = 0
KAI1 041035Z 34012KT 09/08 A3007 RMK A01 T00900076  RH  091%=      5-min Rain = 0
KAI1 041036Z 35013KT 09/08 A3007 RMK A01 T00900076  RH  091%=      5-min Rain = 0
KAI1 041037Z 35011KT 09/08 A3007 RMK A01 T00900076  RH  091%=      5-min Rain = 0
KAI1 041038Z 35011KT 09/08 A3007 RMK A01 T00910077  RH  091%=      5-min Rain = 0
KAI1 041039Z 35012KT 09/08 A3007 RMK A01 T00900077  RH  091%=      5-min Rain = 0
KAI1 041040Z 35014KT 09/08 A3007 RMK A01 T00900077  RH  091%=      5-min Rain = 0
KAI1 041041Z 35011KT 09/08 A3008 RMK A01 T00900076  RH  091%=      5-min Rain = 0
KAI1 041042Z 35012KT 09/08 A3008 RMK A01 T00900076  RH  091%=      5-min Rain = 0
KAI1 041043Z 35012KT 09/08 A3008 RMK A01 T00900076  RH  091%=      5-min Rain = 0
KAI1 041044Z 35013KT 09/08 A3008 RMK A01 T00900076  RH  091%=      5-min Rain = 0
KAI1 041045Z 35013KT 09/08 A3008 RMK A01 T00900076  RH  091%=      5-min Rain = 0
KAI1 041046Z 35013KT 09/08 A3008 RMK A01 T00900076  RH  091%=      5-min Rain = 0
KAI1 041047Z 35013KT 09/08 A3008 RMK A01 T00900076  RH  091%=      5-min Rain = 0
KAI1 041048Z 35011KT 09/08 A3008 RMK A01 T00900076  RH  091%=      5-min Rain = 0
KAI1 041049Z 35012KT 09/08 A3008 RMK A01 T00910077  RH  091%=      5-min Rain = 0
KAI1 041050Z 35012KT 09/08 A3008 RMK A01 T00900077  RH  091%=      5-min Rain = 0
KAI1 041051Z 35014KT 09/08 A3008 RMK A01 T00900077  RH  091%=      5-min Rain = 0
KAI1 041052Z 35015KT 09/08 A3008 RMK A01 T00910076  RH  091%=      5-min Rain = 0
KAI1 041053Z 35014KT 09/08 A3008 RMK A01 T00900075  RH  090%=      5-min Rain = 0
KAI1 041054Z 35014KT 09/08 A3008 RMK A01 T00900075  RH  090%=      5-min Rain = 0
KAI1 041055Z 36015KT 09/08 A3008 RMK A01 T00910075  RH  090%=      5-min Rain = 0
KAI1 041056Z 36015KT 09/08 A3008 RMK A01 T00910075  RH  090%=      5-min Rain = 0
KAI1 041057Z 35014KT 09/08 A3008 RMK A01 T00910075  RH  090%=      5-min Rain = 0
KAI1 041058Z 35013KT 09/08 A3008 RMK A01 T00910075  RH  090%=      5-min Rain = 0
KAI1 041059Z 36012KT 09/08 A3008 RMK A01 T00910075  RH  090%=      5-min Rain = 0
KAI1 041100Z 00012KT 09/08 A3008 RMK A01 T00910075  RH  090%=      5-min Rain = 0
KAI1 041101Z 36014KT 09/08 A3008 RMK A01 T00910076  RH  090%=      5-min Rain = 0
KAI1 041102Z 00015KT 09/08 A3008 RMK A01 T00910075  RH  090%=      5-min Rain = 0
KAI1 041103Z 00014KT 09/07 A3008 RMK A01 T00910074  RH  089%=      5-min Rain = 0
KAI1 041104Z 00013KT 09/07 A3008 RMK A01 T00910074  RH  090%=      5-min Rain = 0
KAI1 041105Z 36013KT 09/08 A3008 RMK A01 T00910075  RH  090%=      5-min Rain = 0
KAI1 041106Z 00013KT 09/08 A3008 RMK A01 T00910075  RH  090%=      5-min Rain = 0
KAI1 041107Z 00013KT 09/08 A3008 RMK A01 T00910075  RH  090%=      5-min Rain = 0
KAI1 041108Z 00011KT 09/08 A3008 RMK A01 T00910075  RH  090%=      5-min Rain = 0
KAI1 041109Z 00013KT 09/08 A3008 RMK A01 T00910075  RH  090%=      5-min Rain = 0
KAI1 041110Z 00012KT 09/08 A3008 RMK A01 T00910075  RH  090%=      5-min Rain = 0
KAI1 041111Z 00013KT 09/08 A3008 RMK A01 T00910075  RH  090%=      5-min Rain = 0
KAI1 041112Z 00014KT 09/08 A3008 RMK A01 T00910075  RH  090%=      5-min Rain = 0
KAI1 041113Z 00012KT 09/08 A3008 RMK A01 T00910075  RH  090%=      5-min Rain = 0
KAI1 041114Z 00013KT 09/08 A3008 RMK A01 T00910075  RH  090%=      5-min Rain = 0
KAI1 041115Z 00013KT 09/08 A3008 RMK A01 T00910076  RH  090%=      5-min Rain = 0
KAI1 041116Z 36013KT 09/08 A3008 RMK A01 T00910076  RH  090%=      5-min Rain = 0
KAI1 041117Z 36012KT 09/08 A3008 RMK A01 T00910076  RH  090%=      5-min Rain = 0
KAI1 041118Z 00013KT 09/08 A3008 RMK A01 T00910076  RH  090%=      5-min Rain = 0
KAI1 041119Z 00012KT 09/08 A3008 RMK A01 T00900075  RH  090%=      5-min Rain = 0
KAI1 041120Z 35014KT 09/08 A3008 RMK A01 T00900076  RH  091%=      5-min Rain = 0
KAI1 041121Z 35015KT 09/08 A3008 RMK A01 T00900076  RH  091%=      5-min Rain = 0
KAI1 041122Z 36013KT 09/08 A3008 RMK A01 T00900076  RH  090%=      5-min Rain = 0
KAI1 041123Z 35013KT 09/08 A3008 RMK A01 T00900076  RH  091%=      5-min Rain = 0
KAI1 041124Z 35015KT 09/08 A3008 RMK A01 T00900076  RH  091%=      5-min Rain = 0
KAI1 041125Z 35014KT 09/08 A3008 RMK A01 T00900075  RH  090%=      5-min Rain = 0
KAI1 041126Z 35013KT 09/08 A3008 RMK A01 T00900075  RH  090%=      5-min Rain = 0
KAI1 041127Z 36014KT 09/08 A3009 RMK A01 T00900075  RH  090%=      5-min Rain = 0
KAI1 041128Z 36013KT 09/08 A3009 RMK A01 T00900076  RH  091%=      5-min Rain = 0
KAI1 041129Z 36011KT 09/08 A3009 RMK A01 T00900076  RH  091%=      5-min Rain = 0
KAI1 041130Z 36014KT 09/08 A3009 RMK A01 T00900076  RH  091%=      5-min Rain = 0
KAI1 041131Z 36014KT 09/08 A3009 RMK A01 T00900075  RH  090%=      5-min Rain = 0
KAI1 041132Z 36012KT 09/08 A3009 RMK A01 T00900075  RH  090%=      5-min Rain = 0
KAI1 041133Z 35013KT 09/07 A3009 RMK A01 T00900074  RH  090%=      5-min Rain = 0
KAI1 041134Z 35012KT 09/07 A3009 RMK A01 T00900074  RH  090%=      5-min Rain = 0
KAI1 041135Z 36011KT 09/08 A3009 RMK A01 T00900075  RH  090%=      5-min Rain = 0
KAI1 041136Z 35013KT 09/08 A3009 RMK A01 T00900075  RH  091%=      5-min Rain = 0
KAI1 041137Z 35013KT 09/08 A301 RMK A01 T00900075  RH  090%=      5-min Rain = 0
KAI1 041138Z 35010KT 09/08 A301 RMK A01 T00900075  RH  090%=      5-min Rain = 0
KAI1 041139Z 35010G16KT 09/08 A301 RMK A01 T00900075  RH  091%=      5-min Rain = 0
KAI1 041140Z 35012KT 09/08 A301 RMK A01 T00900076  RH  091%=      5-min Rain = 0
KAI1 041141Z 35013KT 09/08 A301 RMK A01 T00900075  RH  090%=      5-min Rain = 0
KAI1 041142Z 36013KT 09/07 A301 RMK A01 T00900074  RH  090%=      5-min Rain = 0
KAI1 041143Z 35011KT 09/07 A301 RMK A01 T00900074  RH  090%=      5-min Rain = 0
KAI1 041144Z 35015KT 09/08 A301 RMK A01 T00900075  RH  090%=      5-min Rain = 0
KAI1 041145Z 36015KT 09/07 A301 RMK A01 T00900074  RH  090%=      5-min Rain = 0
KAI1 041146Z 35016KT 09/07 A301 RMK A01 T00900074  RH  089%=      5-min Rain = 0
KAI1 041147Z 35014KT 09/07 A301 RMK A01 T00900073  RH  089%=      5-min Rain = 0
KAI1 041148Z 36015KT 09/07 A301 RMK A01 T00900074  RH  089%=      5-min Rain = 0
KAI1 041149Z 35013KT 09/07 A301 RMK A01 T00900073  RH  089%=      5-min Rain = 0
KAI1 041150Z 35014KT 09/07 A301 RMK A01 T00900074  RH  089%=      5-min Rain = 0
KAI1 041151Z 36013KT 09/07 A301 RMK A01 T00900074  RH  089%=      5-min Rain = 0
KAI1 041152Z 35013KT 09/07 A301 RMK A01 T00900074  RH  089%=      5-min Rain = 0
KAI1 041153Z 36015KT 09/07 A301 RMK A01 T00900073  RH  089%=      5-min Rain = 0
KAI1 041154Z 36012KT 09/07 A301 RMK A01 T00900073  RH  089%=      5-min Rain = 0
KAI1 041155Z 35014KT 09/07 A301 RMK A01 T00900074  RH  089%=      5-min Rain = 0
KAI1 041156Z 36013KT 09/07 A301 RMK A01 T00900073  RH  089%=      5-min Rain = 0
KAI1 041157Z 36014KT 09/07 A301 RMK A01 T00900073  RH  089%=      5-min Rain = 0
KAI1 041158Z 36015KT 09/07 A301 RMK A01 T00900073  RH  089%=      5-min Rain = 0
KAI1 041159Z 36014KT 09/07 A301 RMK A01 T00900072  RH  088%=      5-min Rain = 0
KAI1 041200Z 36012KT 09/07 A301 RMK A01 T00900072  RH  088%=      5-min Rain = 0
KAI1 041201Z 35012KT 09/07 A301 RMK A01 T00900072  RH  089%=      5-min Rain = 0
KAI1 041202Z 35012KT 09/07 A301 RMK A01 T00900073  RH  089%=      5-min Rain = 0
KAI1 041203Z 35012KT 09/07 A301 RMK A01 T00900074  RH  089%=      5-min Rain = 0
KAI1 041204Z 35014KT 09/07 A301 RMK A01 T00900074  RH  089%=      5-min Rain = 0
KAI1 041205Z 35011KT 09/07 A301 RMK A01 T00900073  RH  089%=      5-min Rain = 0
KAI1 041206Z 35011KT 09/07 A301 RMK A01 T00910074  RH  090%=      5-min Rain = 0
KAI1 041207Z 35010KT 09/07 A301 RMK A01 T00900074  RH  090%=      5-min Rain = 0
KAI1 041208Z 35010KT 09/07 A301 RMK A01 T00900074  RH  090%=      5-min Rain = 0
KAI1 041209Z 35010KT 09/08 A301 RMK A01 T00900075  RH  090%=      5-min Rain = 0
KAI1 041210Z 35010KT 09/07 A301 RMK A01 T00890074  RH  090%=      5-min Rain = 0
KAI1 041211Z 35010KT 09/07 A301 RMK A01 T00890074  RH  090%=      5-min Rain = 0
KAI1 041212Z 36011KT 09/08 A301 RMK A01 T00890075  RH  091%=      5-min Rain = 0
KAI1 041213Z 35010KT 09/08 A301 RMK A01 T00890075  RH  091%=      5-min Rain = 0
KAI1 041214Z 35012KT 09/07 A301 RMK A01 T00890074  RH  090%=      5-min Rain = 0
KAI1 041215Z 35011KT 09/07 A3011 RMK A01 T00890073  RH  090%=      5-min Rain = 0
KAI1 041216Z 36012KT 09/07 A3011 RMK A01 T00890073  RH  089%=      5-min Rain = 0
KAI1 041217Z 36013KT 09/07 A3011 RMK A01 T00890072  RH  089%=      5-min Rain = 0
KAI1 041218Z 36012KT 09/07 A3011 RMK A01 T00890071  RH  089%=      5-min Rain = 0
KAI1 041219Z 35011KT 09/07 A3011 RMK A01 T00890071  RH  089%=      5-min Rain = 0
KAI1 041220Z 36011KT 09/07 A3011 RMK A01 T00890072  RH  089%=      5-min Rain = 0
KAI1 041221Z 36011KT 09/07 A3011 RMK A01 T00880072  RH  089%=      5-min Rain = 0
KAI1 041222Z 00012KT 09/07 A301 RMK A01 T00880071  RH  089%=      5-min Rain = 0
KAI1 041223Z 35012KT 09/07 A301 RMK A01 T00880071  RH  089%=      5-min Rain = 0
KAI1 041224Z 36013KT 09/07 A301 RMK A01 T00880070  RH  089%=      5-min Rain = 0
KAI1 041225Z 00013KT 09/07 A301 RMK A01 T00880070  RH  089%=      5-min Rain = 0
KAI1 041226Z 35011KT 09/07 A301 RMK A01 T00880070  RH  089%=      5-min Rain = 0
KAI1 041227Z 36012KT 09/07 A301 RMK A01 T00870070  RH  089%=      5-min Rain = 0
KAI1 041228Z 36012KT 09/07 A301 RMK A01 T00880070  RH  089%=      5-min Rain = 0
KAI1 041229Z 35013KT 09/07 A3011 RMK A01 T00870069  RH  089%=      5-min Rain = 0
KAI1 041230Z 35011KT 09/07 A3011 RMK A01 T00880070  RH  089%=      5-min Rain = 0
KAI1 041231Z 35012KT 09/07 A3011 RMK A01 T00880070  RH  089%=      5-min Rain = 0
KAI1 041232Z 35012KT 09/07 A3011 RMK A01 T00880070  RH  089%=      5-min Rain = 0
KAI1 041233Z 35012KT 09/07 A3011 RMK A01 T00880070  RH  088%=      5-min Rain = 0
KAI1 041234Z 35011KT 09/07 A3011 RMK A01 T00880069  RH  088%=      5-min Rain = 0
KAI1 041235Z 35013KT 09/07 A3011 RMK A01 T00880069  RH  088%=      5-min Rain = 0
KAI1 041236Z 35012KT 09/07 A3011 RMK A01 T00880069  RH  088%=      5-min Rain = 0
KAI1 041237Z 35011KT 09/07 A3011 RMK A01 T00880069  RH  088%=      5-min Rain = 0
KAI1 041238Z 35011KT 09/07 A3011 RMK A01 T00880070  RH  089%=      5-min Rain = 0
KAI1 041239Z 35011KT 09/07 A3011 RMK A01 T00880070  RH  089%=      5-min Rain = 0
KAI1 041240Z 35012KT 09/07 A3011 RMK A01 T00880070  RH  089%=      5-min Rain = 0
KAI1 041241Z 35011KT 09/07 A3011 RMK A01 T00870070  RH  089%=      5-min Rain = 0
KAI1 041242Z 35010KT 09/07 A3011 RMK A01 T00870069  RH  089%=      5-min Rain = 0
KAI1 041243Z 35012KT 09/07 A3011 RMK A01 T00880070  RH  089%=      5-min Rain = 0
KAI1 041244Z 36011KT 09/07 A3011 RMK A01 T00880070  RH  089%=      5-min Rain = 0
KAI1 041245Z 35011KT 09/07 A3011 RMK A01 T00880071  RH  089%=      5-min Rain = 0
KAI1 041246Z 36012KT 09/07 A3011 RMK A01 T00880071  RH  089%=      5-min Rain = 0
KAI1 041247Z 35012KT 09/07 A3011 RMK A01 T00880071  RH  089%=      5-min Rain = 0
KAI1 041248Z 35012KT 09/07 A3011 RMK A01 T00890071  RH  089%=      5-min Rain = 0
KAI1 041249Z 35012KT 09/07 A3011 RMK A01 T00890071  RH  089%=      5-min Rain = 0
KAI1 041250Z 35011KT 09/07 A3011 RMK A01 T00890071  RH  089%=      5-min Rain = 0
KAI1 041251Z 35011KT 09/07 A3011 RMK A01 T00890072  RH  089%=      5-min Rain = 0
KAI1 041252Z 34011KT 09/07 A3012 RMK A01 T00890073  RH  089%=      5-min Rain = 0
KAI1 041253Z 34011KT 09/07 A3012 RMK A01 T00900072  RH  089%=      5-min Rain = 0
KAI1 041254Z 34011KT 09/07 A3012 RMK A01 T00890072  RH  089%=      5-min Rain = 0
KAI1 041255Z 35012KT 09/07 A3012 RMK A01 T00900073  RH  089%=      5-min Rain = 0
KAI1 041256Z 34010KT 09/07 A3012 RMK A01 T00900073  RH  089%=      5-min Rain = 0
KAI1 041257Z 34010KT 09/07 A3012 RMK A01 T00900073  RH  089%=      5-min Rain = 0
KAI1 041258Z 35014KT 09/07 A3012 RMK A01 T00900073  RH  089%=      5-min Rain = 0
KAI1 041259Z 34012KT 09/07 A3012 RMK A01 T00900072  RH  088%=      5-min Rain = 0
KAI1 041300Z 34013KT 09/07 A3012 RMK A01 T00900072  RH  088%=      5-min Rain = 0
KAI1 041301Z 34012KT 09/07 A3012 RMK A01 T00900071  RH  088%=      5-min Rain = 0
KAI1 041302Z 34011KT 09/07 A3012 RMK A01 T00900072  RH  088%=      5-min Rain = 0
KAI1 041303Z 34013KT 09/07 A3012 RMK A01 T00910072  RH  088%=      5-min Rain = 0
KAI1 041304Z 34014KT 09/07 A3012 RMK A01 T00910071  RH  088%=      5-min Rain = 0
KAI1 041305Z 34014KT 09/07 A3012 RMK A01 T00910071  RH  087%=      5-min Rain = 0
KAI1 041306Z 35015KT 09/07 A3012 RMK A01 T00900070  RH  087%=      5-min Rain = 0
KAI1 041307Z 34015KT 09/07 A3013 RMK A01 T00900070  RH  087%=      5-min Rain = 0
KAI1 041308Z 35013KT 09/07 A3013 RMK A01 T00900070  RH  087%=      5-min Rain = 0
KAI1 041309Z 34013KT 09/07 A3013 RMK A01 T00910071  RH  087%=      5-min Rain = 0
KAI1 041310Z 34014KT 09/07 A3013 RMK A01 T00910071  RH  087%=      5-min Rain = 0
KAI1 041311Z 35014KT 09/07 A3013 RMK A01 T00910070  RH  087%=      5-min Rain = 0
KAI1 041312Z 35013KT 09/07 A3013 RMK A01 T00910070  RH  087%=      5-min Rain = 0
KAI1 041313Z 34014KT 09/07 A3013 RMK A01 T00910070  RH  087%=      5-min Rain = 0
KAI1 041314Z 35015KT 09/07 A3013 RMK A01 T00910069  RH  086%=      5-min Rain = 0
KAI1 041315Z 34014KT 09/07 A3013 RMK A01 T00910069  RH  086%=      5-min Rain = 0
KAI1 041316Z 34012KT 09/07 A3013 RMK A01 T00910070  RH  086%=      5-min Rain = 0
KAI1 041317Z 34014KT 09/07 A3013 RMK A01 T00910070  RH  087%=      5-min Rain = 0
KAI1 041318Z 35011KT 09/07 A3013 RMK A01 T00920070  RH  087%=      5-min Rain = 0
KAI1 041319Z 35014KT 09/07 A3013 RMK A01 T00920072  RH  087%=      5-min Rain = 0
KAI1 041320Z 35014KT 09/07 A3013 RMK A01 T00930070  RH  086%=      5-min Rain = 0
KAI1 041321Z 34013KT 09/07 A3013 RMK A01 T00930070  RH  086%=      5-min Rain = 0
KAI1 041322Z 35013KT 09/07 A3013 RMK A01 T00930071  RH  086%=      5-min Rain = 0
KAI1 041323Z 35014KT 09/07 A3014 RMK A01 T00930071  RH  086%=      5-min Rain = 0
KAI1 041324Z 35015KT 09/07 A3013 RMK A01 T00940070  RH  085%=      5-min Rain = 0
KAI1 041325Z 36014KT 09/07 A3014 RMK A01 T00940069  RH  085%=      5-min Rain = 0
KAI1 041326Z 36014KT 09/07 A3014 RMK A01 T00940069  RH  085%=      5-min Rain = 0
KAI1 041327Z 35015KT 09/07 A3014 RMK A01 T00940070  RH  085%=      5-min Rain = 0
KAI1 041328Z 35015KT 09/07 A3014 RMK A01 T00940069  RH  084%=      5-min Rain = 0
KAI1 041329Z 35015KT 09/07 A3014 RMK A01 T00940069  RH  085%=      5-min Rain = 0
KAI1 041330Z 35015KT 09/07 A3014 RMK A01 T00940069  RH  084%=      5-min Rain = 0
KAI1 041331Z 35014KT 09/07 A3014 RMK A01 T00940069  RH  084%=      5-min Rain = 0
KAI1 041332Z 35014KT 10/07 A3014 RMK A01 T00950070  RH  084%=      5-min Rain = 0
KAI1 041333Z 35015KT 10/07 A3014 RMK A01 T00960069  RH  084%=      5-min Rain = 0
KAI1 041334Z 35014KT 10/07 A3014 RMK A01 T00960070  RH  084%=      5-min Rain = 0
KAI1 041335Z 35014KT 10/07 A3014 RMK A01 T00960070  RH  084%=      5-min Rain = 0
KAI1 041336Z 36014KT 10/07 A3014 RMK A01 T00970070  RH  084%=      5-min Rain = 0
KAI1 041337Z 35015KT 10/07 A3014 RMK A01 T00970069  RH  083%=      5-min Rain = 0
KAI1 041338Z 35014KT 10/07 A3014 RMK A01 T00970069  RH  083%=      5-min Rain = 0
KAI1 041339Z 00015KT 10/07 A3014 RMK A01 T00970070  RH  083%=      5-min Rain = 0
KAI1 041340Z 36013KT 10/07 A3014 RMK A01 T00980070  RH  083%=      5-min Rain = 0
KAI1 041341Z 35014KT 10/07 A3014 RMK A01 T00980072  RH  084%=      5-min Rain = 0
KAI1 041342Z 35014KT 10/07 A3014 RMK A01 T00990071  RH  083%=      5-min Rain = 0
KAI1 041343Z 35013KT 10/07 A3014 RMK A01 T00990071  RH  083%=      5-min Rain = 0
KAI1 041344Z 36013KT 10/07 A3014 RMK A01 T01000074  RH  084%=      5-min Rain = 0
KAI1 041345Z 35014KT 10/07 A3014 RMK A01 T01000071  RH  082%=      5-min Rain = 0
KAI1 041346Z 35014KT 10/07 A3014 RMK A01 T01010071  RH  082%=      5-min Rain = 0
KAI1 041347Z 35014KT 10/07 A3014 RMK A01 T01010073  RH  083%=      5-min Rain = 0
KAI1 041348Z 36015KT 10/07 A3014 RMK A01 T01020073  RH  083%=      5-min Rain = 0
KAI1 041349Z 36018KT 10/07 A3014 RMK A01 T01020071  RH  081%=      5-min Rain = 0
KAI1 041350Z 00017KT 10/07 A3014 RMK A01 T01010067  RH  080%=      5-min Rain = 0
KAI1 041351Z 00016KT 10/07 A3015 RMK A01 T01000069  RH  081%=      5-min Rain = 0
KAI1 041352Z 35015KT 10/07 A3014 RMK A01 T01010071  RH  082%=      5-min Rain = 0
KAI1 041353Z 35016KT 10/07 A3014 RMK A01 T01020071  RH  081%=      5-min Rain = 0
KAI1 041354Z 35016G21KT 10/07 A3015 RMK A01 T01020071  RH  081%=      5-min Rain = 0
KAI1 041355Z 00019KT 10/07 A3015 RMK A01 T01030070  RH  080%=      5-min Rain = 0
KAI1 041356Z 00016KT 10/07 A3015 RMK A01 T01020068  RH  079%=      5-min Rain = 0
KAI1 041357Z 36013KT 10/07 A3015 RMK A01 T01020072  RH  081%=      5-min Rain = 0
KAI1 041358Z 00016KT 10/07 A3015 RMK A01 T01030072  RH  081%=      5-min Rain = 0
KAI1 041359Z 00017KT 10/07 A3015 RMK A01 T01040071  RH  080%=      5-min Rain = 0
KAI1 041400Z 00016KT 10/07 A3015 RMK A01 T01040069  RH  079%=      5-min Rain = 0
KAI1 041401Z 00017KT 10/07 A3015 RMK A01 T01040069  RH  079%=      5-min Rain = 0
KAI1 041402Z 36018KT 10/07 A3015 RMK A01 T01040068  RH  078%=      5-min Rain = 0
KAI1 041403Z 36020KT 10/07 A3015 RMK A01 T01040067  RH  078%=      5-min Rain = 0
KAI1 041404Z 00016KT 10/07 A3015 RMK A01 T01040065  RH  077%=      5-min Rain = 0
KAI1 041405Z 01017KT 11/07 A3015 RMK A01 T01050069  RH  078%=      5-min Rain = 0
KAI1 041406Z 00018KT 11/07 A3015 RMK A01 T01050067  RH  077%=      5-min Rain = 0
KAI1 041407Z 36017KT 11/07 A3015 RMK A01 T01050068  RH  078%=      5-min Rain = 0
KAI1 041408Z 00018KT 11/07 A3015 RMK A01 T01050067  RH  077%=      5-min Rain = 0
KAI1 041409Z 01015KT 11/07 A3015 RMK A01 T01050067  RH  077%=      5-min Rain = 0
KAI1 041410Z 01015KT 11/07 A3015 RMK A01 T01070069  RH  078%=      5-min Rain = 0
KAI1 041411Z 01017KT 11/07 A3015 RMK A01 T01070068  RH  077%=      5-min Rain = 0
KAI1 041412Z 01014KT 11/07 A3015 RMK A01 T01070067  RH  076%=      5-min Rain = 0
KAI1 041413Z 01015KT 11/07 A3015 RMK A01 T01080071  RH  078%=      5-min Rain = 0
KAI1 041414Z 00017KT 11/07 A3016 RMK A01 T01090067  RH  075%=      5-min Rain = 0
KAI1 041415Z 00018KT 11/07 A3016 RMK A01 T01090066  RH  075%=      5-min Rain = 0
KAI1 041416Z 01016KT 11/07 A3016 RMK A01 T01090065  RH  074%=      5-min Rain = 0
KAI1 041417Z 01019KT 11/07 A3016 RMK A01 T01090067  RH  075%=      5-min Rain = 0
KAI1 041418Z 01018KT 11/06 A3016 RMK A01 T01100064  RH  073%=      5-min Rain = 0
KAI1 041419Z 01018KT 11/07 A3016 RMK A01 T01100065  RH  073%=      5-min Rain = 0
KAI1 041420Z 01017KT 11/06 A3016 RMK A01 T01100064  RH  073%=      5-min Rain = 0
KAI1 041421Z 01018KT 11/06 A3016 RMK A01 T01100064  RH  073%=      5-min Rain = 0
KAI1 041422Z 01020KT 11/06 A3016 RMK A01 T01100064  RH  073%=      5-min Rain = 0
KAI1 041423Z 01016G21KT 11/07 A3016 RMK A01 T01100066  RH  074%=      5-min Rain = 0
KAI1 041424Z 00017KT 11/07 A3016 RMK A01 T01110066  RH  074%=      5-min Rain = 0
KAI1 041425Z 01017KT 11/06 A3016 RMK A01 T01110063  RH  072%=      5-min Rain = 0
KAI1 041426Z 00018KT 11/07 A3016 RMK A01 T01110065  RH  073%=      5-min Rain = 0
KAI1 041427Z 00017KT 11/07 A3016 RMK A01 T01110065  RH  073%=      5-min Rain = 0
KAI1 041428Z 01016KT 11/07 A3016 RMK A01 T01110066  RH  074%=      5-min Rain = 0
KAI1 041429Z 01016KT 11/07 A3016 RMK A01 T01120067  RH  073%=      5-min Rain = 0
KAI1 041430Z 02017KT 11/07 A3016 RMK A01 T01120065  RH  073%=      5-min Rain = 0
KAI1 041431Z 01018KT 11/06 A3016 RMK A01 T01120062  RH  071%=      5-min Rain = 0
KAI1 041432Z 01017KT 11/06 A3016 RMK A01 T01110063  RH  072%=      5-min Rain = 0
KAI1 041433Z 01016KT 11/06 A3016 RMK A01 T01120064  RH  072%=      5-min Rain = 0
KAI1 041434Z 01016KT 11/07 A3016 RMK A01 T01120066  RH  074%=      5-min Rain = 0
KAI1 041435Z 01015KT 11/07 A3016 RMK A01 T01130067  RH  073%=      5-min Rain = 0
KAI1 041436Z 01013KT 11/07 A3016 RMK A01 T01140068  RH  073%=      5-min Rain = 0
KAI1 041437Z 01016G22KT 12/07 A3016 RMK A01 T01160074  RH  075%=      5-min Rain = 0
KAI1 041438Z 01018KT 12/07 A3016 RMK A01 T01170067  RH  072%=      5-min Rain = 0
KAI1 041439Z 00017KT 12/07 A3016 RMK A01 T01160067  RH  072%=      5-min Rain = 0
KAI1 041440Z 00018KT 11/06 A3016 RMK A01 T01140062  RH  070%=      5-min Rain = 0
KAI1 041441Z 00015KT 11/06 A3016 RMK A01 T01130064  RH  072%=      5-min Rain = 0
KAI1 041442Z 01015KT 11/07 A3016 RMK A01 T01140068  RH  073%=      5-min Rain = 0
KAI1 041443Z 00017KT 12/07 A3016 RMK A01 T01150071  RH  074%=      5-min Rain = 0
KAI1 041444Z 00018KT 12/07 A3016 RMK A01 T01160066  RH  072%=      5-min Rain = 0
KAI1 041445Z 00019KT 12/07 A3016 RMK A01 T01150065  RH  071%=      5-min Rain = 0
KAI1 041446Z 01016KT 11/07 A3016 RMK A01 T01140065  RH  072%=      5-min Rain = 0
KAI1 041447Z 00018KT 12/07 A3016 RMK A01 T01150068  RH  073%=      5-min Rain = 0
KAI1 041448Z 00019KT 11/06 A3016 RMK A01 T01140064  RH  071%=      5-min Rain = 0
KAI1 041449Z 35018KT 11/06 A3016 RMK A01 T01120061  RH  071%=      5-min Rain = 0
KAI1 041450Z 36016KT 11/07 A3016 RMK A01 T01130065  RH  072%=      5-min Rain = 0
KAI1 041451Z 36017KT 11/07 A3016 RMK A01 T01140067  RH  073%=      5-min Rain = 0
KAI1 041452Z 00016KT 12/07 A3016 RMK A01 T01150068  RH  073%=      5-min Rain = 0
KAI1 041453Z 01016KT 12/07 A3016 RMK A01 T01160068  RH  073%=      5-min Rain = 0
KAI1 041454Z 01017KT 12/07 A3016 RMK A01 T01160068  RH  073%=      5-min Rain = 0
KAI1 041455Z 01016KT 12/07 A3016 RMK A01 T01160070  RH  073%=      5-min Rain = 0
KAI1 041456Z 01015KT 12/07 A3016 RMK A01 T01170068  RH  072%=      5-min Rain = 0
KAI1 041457Z 00017KT 12/07 A3016 RMK A01 T01160069  RH  072%=      5-min Rain = 0
KAI1 041458Z 36016KT 12/07 A3016 RMK A01 T01160069  RH  073%=      5-min Rain = 0
KAI1 041459Z 00018KT 12/07 A3016 RMK A01 T01170067  RH  072%=      5-min Rain = 0
KAI1 041500Z 00016KT 12/07 A3016 RMK A01 T01160067  RH  072%=      5-min Rain = 0
KAI1 041501Z 01017KT 12/07 A3016 RMK A01 T01170068  RH  072%=      5-min Rain = 0
KAI1 041502Z 01015G20KT 12/07 A3016 RMK A01 T01170066  RH  071%=      5-min Rain = 0
KAI1 041503Z 01017KT 12/07 A3016 RMK A01 T01170071  RH  073%=      5-min Rain = 0
KAI1 041504Z 02016KT 12/07 A3016 RMK A01 T01190069  RH  072%=      5-min Rain = 0
KAI1 041505Z 01016KT 12/07 A3016 RMK A01 T01190074  RH  074%=      5-min Rain = 0
KAI1 041506Z 36015KT 12/07 A3016 RMK A01 T01200071  RH  072%=      5-min Rain = 0
KAI1 041507Z 36016KT 12/07 A3016 RMK A01 T01200074  RH  073%=      5-min Rain = 0
KAI1 041508Z 35017KT 12/08 A3016 RMK A01 T01210075  RH  073%=      5-min Rain = 0
KAI1 041509Z 36016KT 12/07 A3016 RMK A01 T01220074  RH  072%=      5-min Rain = 0
KAI1 041510Z 00019KT 12/07 A3016 RMK A01 T01220072  RH  071%=      5-min Rain = 0
KAI1 041511Z 01015KT 12/07 A3016 RMK A01 T01220070  RH  071%=      5-min Rain = 0
KAI1 041512Z 01017KT 12/07 A3016 RMK A01 T01210074  RH  073%=      5-min Rain = 0
KAI1 041513Z 00018KT 12/07 A3016 RMK A01 T01220071  RH  071%=      5-min Rain = 0
KAI1 041514Z 00015KT 12/07 A3016 RMK A01 T01190067  RH  070%=      5-min Rain = 0
KAI1 041515Z 00014KT 12/07 A3016 RMK A01 T01180069  RH  072%=      5-min Rain = 0
KAI1 041516Z 36014KT 12/08 A3016 RMK A01 T01200076  RH  074%=      5-min Rain = 0
KAI1 041517Z 01018KT 12/07 A3016 RMK A01 T01230073  RH  072%=      5-min Rain = 0
KAI1 041518Z 00017KT 12/07 A3016 RMK A01 T01230072  RH  071%=      5-min Rain = 0
KAI1 041519Z 36017KT 12/07 A3016 RMK A01 T01220066  RH  068%=      5-min Rain = 0
KAI1 041520Z 36017KT 12/07 A3016 RMK A01 T01210067  RH  069%=      5-min Rain = 0
KAI1 041521Z 36019KT 12/07 A3016 RMK A01 T01200067  RH  070%=      5-min Rain = 0
KAI1 041522Z 36019KT 12/07 A3016 RMK A01 T01190068  RH  071%=      5-min Rain = 0
KAI1 041523Z 01016KT 12/07 A3016 RMK A01 T01190071  RH  072%=      5-min Rain = 0
KAI1 041524Z 01015KT 12/07 A3017 RMK A01 T01190071  RH  073%=      5-min Rain = 0
KAI1 041525Z 01014KT 12/07 A3016 RMK A01 T01190074  RH  074%=      5-min Rain = 0
KAI1 041526Z 01017KT 12/07 A3017 RMK A01 T01200072  RH  072%=      5-min Rain = 0
KAI1 041527Z 01016KT 12/07 A3017 RMK A01 T01210072  RH  072%=      5-min Rain = 0
KAI1 041528Z 01014KT 12/07 A3017 RMK A01 T01200069  RH  071%=      5-min Rain = 0
KAI1 041529Z 01016KT 12/07 A3017 RMK A01 T01190072  RH  073%=      5-min Rain = 0
KAI1 041530Z 00019KT 12/07 A3017 RMK A01 T01190068  RH  071%=      5-min Rain = 0
KAI1 041531Z 35017KT 12/06 A3017 RMK A01 T01180064  RH  069%=      5-min Rain = 0
KAI1 041532Z 00016KT 12/06 A3017 RMK A01 T01180064  RH  069%=      5-min Rain = 0
KAI1 041533Z 00016KT 12/07 A3017 RMK A01 T01190066  RH  070%=      5-min Rain = 0
KAI1 041534Z 35017KT 12/07 A3017 RMK A01 T01210072  RH  072%=      5-min Rain = 0
KAI1 041535Z 35018KT 12/07 A3017 RMK A01 T01230069  RH  070%=      5-min Rain = 0
KAI1 041536Z 35017KT 12/07 A3017 RMK A01 T01230067  RH  069%=      5-min Rain = 0
KAI1 041537Z 00016KT 12/07 A3017 RMK A01 T01210065  RH  069%=      5-min Rain = 0
KAI1 041538Z 35016KT 12/07 A3017 RMK A01 T01210068  RH  070%=      5-min Rain = 0
KAI1 041539Z 35018KT 12/07 A3017 RMK A01 T01210065  RH  069%=      5-min Rain = 0
KAI1 041540Z 36015KT 12/07 A3017 RMK A01 T01210065  RH  068%=      5-min Rain = 0
KAI1 041541Z 36015KT 12/08 A3017 RMK A01 T01230076  RH  073%=      5-min Rain = 0
KAI1 041542Z 35014KT 13/08 A3017 RMK A01 T01270078  RH  072%=      5-min Rain = 0
KAI1 041543Z 00016KT 13/08 A3017 RMK A01 T01290079  RH  071%=      5-min Rain = 0
KAI1 041544Z 00014KT 13/07 A3017 RMK A01 T01270072  RH  069%=      5-min Rain = 0
KAI1 041545Z 35015G20KT 13/07 A3017 RMK A01 T01250072  RH  070%=      5-min Rain = 0
KAI1 041546Z 35017KT 12/07 A3017 RMK A01 T01230066  RH  068%=      5-min Rain = 0
KAI1 041547Z 00018KT 12/07 A3017 RMK A01 T01220066  RH  069%=      5-min Rain = 0
KAI1 041548Z 35018KT 12/06 A3017 RMK A01 T01200064  RH  068%=      5-min Rain = 0
KAI1 041549Z 00018KT 12/06 A3017 RMK A01 T01190063  RH  068%=      5-min Rain = 0
KAI1 041550Z 00020KT 12/07 A3017 RMK A01 T01200065  RH  069%=      5-min Rain = 0
KAI1 041551Z 00019KT 12/06 A3017 RMK A01 T01210062  RH  068%=      5-min Rain = 0
KAI1 041552Z 36014KT 12/06 A3017 RMK A01 T01190063  RH  069%=      5-min Rain = 0
KAI1 041553Z 35014KT 12/07 A3017 RMK A01 T01180071  RH  072%=      5-min Rain = 0
KAI1 041554Z 35018KT 12/07 A3017 RMK A01 T01200070  RH  071%=      5-min Rain = 0
KAI1 041555Z 35016KT 12/07 A3017 RMK A01 T01220068  RH  070%=      5-min Rain = 0
KAI1 041556Z 36017KT 12/07 A3017 RMK A01 T01230071  RH  070%=      5-min Rain = 0
KAI1 041557Z 00017KT 13/07 A3018 RMK A01 T01250070  RH  069%=      5-min Rain = 0
KAI1 041558Z 35016KT 13/07 A3018 RMK A01 T01250067  RH  068%=      5-min Rain = 0
KAI1 041559Z 35016KT 12/07 A3018 RMK A01 T01240066  RH  068%=      5-min Rain = 0
KAI1 041600Z 35016KT 12/07 A3018 RMK A01 T01240068  RH  069%=      5-min Rain = 0
KAI1 041601Z 36015G20KT 12/07 A3018 RMK A01 T01240068  RH  069%=      5-min Rain = 0
KAI1 041602Z 35017KT 13/07 A3018 RMK A01 T01250074  RH  071%=      5-min Rain = 0
KAI1 041603Z 00017KT 13/07 A3018 RMK A01 T01260067  RH  067%=      5-min Rain = 0
KAI1 041604Z 00017KT 12/06 A3018 RMK A01 T01230062  RH  066%=      5-min Rain = 0
KAI1 041605Z 36015KT 12/06 A3018 RMK A01 T01210063  RH  068%=      5-min Rain = 0
KAI1 041606Z 36017KT 12/07 A3018 RMK A01 T01210065  RH  068%=      5-min Rain = 0
KAI1 041607Z 35018KT 12/07 A3018 RMK A01 T01220065  RH  068%=      5-min Rain = 0
KAI1 041608Z 36018KT 12/06 A3018 RMK A01 T01230062  RH  067%=      5-min Rain = 0
KAI1 041609Z 01017KT 12/06 A3018 RMK A01 T01220062  RH  066%=      5-min Rain = 0
KAI1 041610Z 00017KT 12/06 A3018 RMK A01 T01220063  RH  067%=      5-min Rain = 0
KAI1 041611Z 00016KT 12/06 A3018 RMK A01 T01220062  RH  067%=      5-min Rain = 0
KAI1 041612Z 00019KT 12/06 A3018 RMK A01 T01210062  RH  067%=      5-min Rain = 0
KAI1 041613Z 36016KT 12/06 A3018 RMK A01 T01210064  RH  068%=      5-min Rain = 0
KAI1 041614Z 00014KT 12/07 A3018 RMK A01 T01220067  RH  069%=      5-min Rain = 0
KAI1 041615Z 36015KT 12/07 A3018 RMK A01 T01230069  RH  070%=      5-min Rain = 0
KAI1 041616Z 35014KT 12/06 A3018 RMK A01 T01230062  RH  066%=      5-min Rain = 0
KAI1 041617Z 00013KT 12/06 A3019 RMK A01 T01220060  RH  066%=      5-min Rain = 0
KAI1 041618Z 01014KT 12/06 A3019 RMK A01 T01210058  RH  066%=      5-min Rain = 0
KAI1 041619Z 00011KT 12/06 A3019 RMK A01 T01200059  RH  066%=      5-min Rain = 0
KAI1 041620Z 35016KT 12/06 A3019 RMK A01 T01210063  RH  068%=      5-min Rain = 0
KAI1 041621Z 35013KT 12/06 A3019 RMK A01 T01210061  RH  067%=      5-min Rain = 0
KAI1 041622Z 36017KT 12/06 A3019 RMK A01 T01220060  RH  066%=      5-min Rain = 0
KAI1 041623Z 35016KT 12/06 A3019 RMK A01 T01220057  RH  064%=      5-min Rain = 0
KAI1 041624Z 36015KT 12/06 A3019 RMK A01 T01210055  RH  064%=      5-min Rain = 0
KAI1 041625Z 00015KT 12/06 A3019 RMK A01 T01210060  RH  066%=      5-min Rain = 0
KAI1 041626Z 00016KT 12/06 A3019 RMK A01 T01210059  RH  066%=      5-min Rain = 0
KAI1 041627Z 36015KT 12/06 A3019 RMK A01 T01220059  RH  065%=      5-min Rain = 0
KAI1 041628Z 35014KT 12/06 A3019 RMK A01 T01210059  RH  066%=      5-min Rain = 0
KAI1 041629Z 36013KT 12/05 A3019 RMK A01 T01210052  RH  063%=      5-min Rain = 0
KAI1 041630Z 35014KT 12/06 A3019 RMK A01 T01210057  RH  065%=      5-min Rain = 0
KAI1 041631Z 36014KT 12/06 A3019 RMK A01 T01230059  RH  065%=      5-min Rain = 0
KAI1 041632Z 00014KT 12/06 A3019 RMK A01 T01230055  RH  063%=      5-min Rain = 0
KAI1 041633Z 00013KT 12/06 A3019 RMK A01 T01230059  RH  065%=      5-min Rain = 0
KAI1 041634Z 01011KT 12/06 A3019 RMK A01 T01240061  RH  065%=      5-min Rain = 0
KAI1 041635Z 01013KT 13/07 A3019 RMK A01 T01270067  RH  067%=      5-min Rain = 0
KAI1 041636Z 36014KT 13/06 A3019 RMK A01 T01270060  RH  064%=      5-min Rain = 0
KAI1 041637Z 36013KT 13/06 A3019 RMK A01 T01260055  RH  062%=      5-min Rain = 0
KAI1 041638Z 01015KT 13/06 A3019 RMK A01 T01260059  RH  064%=      5-min Rain = 0
KAI1 041639Z 02014KT 13/06 A3019 RMK A01 T01260055  RH  062%=      5-min Rain = 0
KAI1 041640Z 01013KT 12/06 A3019 RMK A01 T01240057  RH  063%=      5-min Rain = 0
KAI1 041641Z 01016KT 13/06 A3019 RMK A01 T01260060  RH  064%=      5-min Rain = 0
KAI1 041642Z 02015KT 13/06 A3019 RMK A01 T01260055  RH  062%=      5-min Rain = 0
KAI1 041643Z 02016KT 13/05 A3019 RMK A01 T01260054  RH  062%=      5-min Rain = 0
KAI1 041644Z 01013KT 13/05 A3019 RMK A01 T01250053  RH  061%=      5-min Rain = 0
KAI1 041645Z 00015KT 13/05 A3018 RMK A01 T01250050  RH  060%=      5-min Rain = 0
KAI1 041646Z 01014KT 13/05 A3019 RMK A01 T01260053  RH  061%=      5-min Rain = 0
KAI1 041647Z 01016KT 13/06 A3018 RMK A01 T01260057  RH  063%=      5-min Rain = 0
KAI1 041648Z 01013KT 13/05 A3018 RMK A01 T01270054  RH  061%=      5-min Rain = 0
KAI1 041649Z 02012KT 13/06 A3018 RMK A01 T01260059  RH  063%=      5-min Rain = 0
KAI1 041650Z 01014KT 13/06 A3018 RMK A01 T01290061  RH  064%=      5-min Rain = 0
KAI1 041651Z 01015KT 13/06 A3018 RMK A01 T01300058  RH  062%=      5-min Rain = 0
KAI1 041652Z 01013KT 13/05 A3018 RMK A01 T01290054  RH  061%=      5-min Rain = 0
KAI1 041653Z 01010KT 13/05 A3018 RMK A01 T01280052  RH  060%=      5-min Rain = 0
KAI1 041654Z 03013KT 13/05 A3018 RMK A01 T01270053  RH  061%=      5-min Rain = 0
KAI1 041655Z 02013KT 13/06 A3018 RMK A01 T01280057  RH  062%=      5-min Rain = 0
KAI1 041656Z 03013KT 13/06 A3018 RMK A01 T01310062  RH  063%=      5-min Rain = 0
KAI1 041657Z 03012KT 13/06 A3018 RMK A01 T01310060  RH  062%=      5-min Rain = 0
KAI1 041658Z 02011KT 13/06 A3018 RMK A01 T01320063  RH  063%=      5-min Rain = 0
KAI1 041659Z 02014KT 13/07 A3018 RMK A01 T01330065  RH  063%=      5-min Rain = 0
KAI1 041700Z 02014KT 13/06 A3018 RMK A01 T01330063  RH  063%=      5-min Rain = 0
KAI1 041701Z 01013KT 13/06 A3018 RMK A01 T01320062  RH  062%=      5-min Rain = 0
KAI1 041702Z 01011KT 13/06 A3018 RMK A01 T01320061  RH  062%=      5-min Rain = 0
KAI1 041703Z 01012KT 13/06 A3018 RMK A01 T01300058  RH  062%=      5-min Rain = 0
KAI1 041704Z 35012KT 13/06 A3018 RMK A01 T01300064  RH  064%=      5-min Rain = 0
KAI1 041705Z 00011KT 13/06 A3018 RMK A01 T01310060  RH  062%=      5-min Rain = 0
KAI1 041706Z 01010KT 13/06 A3018 RMK A01 T01300061  RH  063%=      5-min Rain = 0
KAI1 041707Z 35010KT 13/06 A3018 RMK A01 T01310064  RH  064%=      5-min Rain = 0
KAI1 041708Z 00013KT 13/06 A3018 RMK A01 T01320063  RH  063%=      5-min Rain = 0
KAI1 041709Z 01014KT 13/06 A3018 RMK A01 T01340061  RH  061%=      5-min Rain = 0
KAI1 041710Z 02014KT 13/06 A3018 RMK A01 T01340058  RH  060%=      5-min Rain = 0
KAI1 041711Z 02012KT 13/06 A3018 RMK A01 T01340057  RH  059%=      5-min Rain = 0
KAI1 041712Z 01011KT 13/05 A3018 RMK A01 T01330052  RH  058%=      5-min Rain = 0
KAI1 041713Z 01009KT 13/06 A3018 RMK A01 T01310056  RH  060%=      5-min Rain = 0
KAI1 041714Z 01012G17KT 13/06 A3018 RMK A01 T01340064  RH  063%=      5-min Rain = 0
KAI1 041715Z 01012G17KT 14/06 A3018 RMK A01 T01360062  RH  061%=      5-min Rain = 0
KAI1 041716Z 01012KT 14/06 A3018 RMK A01 T01370064  RH  061%=      5-min Rain = 0
KAI1 041717Z 02013KT 14/06 A3018 RMK A01 T01370059  RH  059%=      5-min Rain = 0
KAI1 041718Z 01013KT 14/06 A3018 RMK A01 T01360059  RH  060%=      5-min Rain = 0
KAI1 041719Z 00013KT 14/06 A3018 RMK A01 T01350059  RH  060%=      5-min Rain = 0
KAI1 041720Z 01013KT 14/06 A3018 RMK A01 T01360063  RH  061%=      5-min Rain = 0
KAI1 041721Z 01012KT 14/06 A3017 RMK A01 T01370060  RH  060%=      5-min Rain = 0
KAI1 041722Z 02012KT 14/06 A3017 RMK A01 T01360061  RH  060%=      5-min Rain = 0
KAI1 041723Z 01012KT 14/06 A3017 RMK A01 T01370064  RH  061%=      5-min Rain = 0
KAI1 041724Z 00013KT 14/06 A3017 RMK A01 T01380060  RH  059%=      5-min Rain = 0
KAI1 041725Z 01010KT 14/06 A3017 RMK A01 T01370059  RH  059%=      5-min Rain = 0
KAI1 041726Z 01011KT 14/06 A3017 RMK A01 T01360056  RH  059%=      5-min Rain = 0
KAI1 041727Z 01012KT 14/06 A3017 RMK A01 T01370064  RH  061%=      5-min Rain = 0
KAI1 041728Z 01009KT 14/06 A3017 RMK A01 T01380055  RH  057%=      5-min Rain = 0
KAI1 041729Z 01008KT 14/06 A3017 RMK A01 T01380064  RH  061%=      5-min Rain = 0
KAI1 041730Z 00011KT 14/07 A3017 RMK A01 T01410069  RH  062%=      5-min Rain = 0
KAI1 041731Z 01008KT 14/06 A3017 RMK A01 T01430061  RH  058%=      5-min Rain = 0
KAI1 041732Z 00010G15KT 14/06 A3017 RMK A01 T01430062  RH  058%=      5-min Rain = 0
KAI1 041733Z 02011G16KT 14/05 A3017 RMK A01 T01420054  RH  056%=      5-min Rain = 0
KAI1 041734Z 01013KT 14/06 A3017 RMK A01 T01410058  RH  057%=      5-min Rain = 0
KAI1 041735Z 01010KT 14/06 A3017 RMK A01 T01400056  RH  057%=      5-min Rain = 0
KAI1 041736Z 36011KT 14/06 A3017 RMK A01 T01400058  RH  058%=      5-min Rain = 0
KAI1 041737Z 00009KT 14/06 A3017 RMK A01 T01410056  RH  057%=      5-min Rain = 0
KAI1 041738Z 02009KT 14/05 A3017 RMK A01 T01410053  RH  055%=      5-min Rain = 0
KAI1 041739Z 36007KT 14/05 A3017 RMK A01 T01410053  RH  055%=      5-min Rain = 0
KAI1 041740Z 35008KT 14/05 A3016 RMK A01 T01400052  RH  055%=      5-min Rain = 0
KAI1 041741Z 02008KT 14/05 A3016 RMK A01 T01400052  RH  055%=      5-min Rain = 0
KAI1 041742Z 03012KT 14/06 A3016 RMK A01 T01400055  RH  056%=      5-min Rain = 0
KAI1 041743Z 03009KT 14/05 A3016 RMK A01 T01410053  RH  055%=      5-min Rain = 0
KAI1 041744Z 04008KT 14/06 A3016 RMK A01 T01410056  RH  057%=      5-min Rain = 0
KAI1 041745Z 04009KT 14/06 A3016 RMK A01 T01430057  RH  056%=      5-min Rain = 0
KAI1 041746Z 01011KT 14/06 A3016 RMK A01 T01420057  RH  057%=      5-min Rain = 0
KAI1 041747Z 02012KT 14/06 A3016 RMK A01 T01430060  RH  057%=      5-min Rain = 0
KAI1 041748Z 01009KT 14/06 A3016 RMK A01 T01440055  RH  055%=      5-min Rain = 0
KAI1 041749Z 02009KT 14/06 A3016 RMK A01 T01440062  RH  058%=      5-min Rain = 0
KAI1 041750Z 01009KT 15/06 A3016 RMK A01 T01450055  RH  055%=      5-min Rain = 0
KAI1 041751Z 04009KT 14/05 A3016 RMK A01 T01440054  RH  055%=      5-min Rain = 0
KAI1 041752Z 02009KT 14/06 A3016 RMK A01 T01430055  RH  055%=      5-min Rain = 0
KAI1 041753Z 03010KT 14/06 A3016 RMK A01 T01440064  RH  059%=      5-min Rain = 0
KAI1 041754Z 04010KT 15/07 A3016 RMK A01 T01480067  RH  058%=      5-min Rain = 0
KAI1 041755Z 03008KT 15/05 A3016 RMK A01 T01470052  RH  053%=      5-min Rain = 0
KAI1 041756Z 03010KT 15/05 A3016 RMK A01 T01450054  RH  054%=      5-min Rain = 0
KAI1 041757Z 01011KT 15/06 A3016 RMK A01 T01450060  RH  057%=      5-min Rain = 0
KAI1 041758Z 04010KT 15/07 A3016 RMK A01 T01470065  RH  058%=      5-min Rain = 0
KAI1 041759Z 04014KT 15/06 A3016 RMK A01 T01480063  RH  056%=      5-min Rain = 0
KAI1 041800Z 05011KT 15/06 A3016 RMK A01 T01480055  RH  054%=      5-min Rain = 0
KAI1 041801Z 05008KT 14/05 A3016 RMK A01 T01440048  RH  052%=      5-min Rain = 0
KAI1 041802Z 04007KT 14/05 A3015 RMK A01 T01420053  RH  055%=      5-min Rain = 0
KAI1 041803Z 04008KT 15/06 A3015 RMK A01 T01450061  RH  057%=      5-min Rain = 0
KAI1 041804Z 02009KT 15/06 A3015 RMK A01 T01470060  RH  056%=      5-min Rain = 0
KAI1 041805Z 02007KT 15/06 A3015 RMK A01 T01470061  RH  056%=      5-min Rain = 0
KAI1 041806Z 04010KT 15/07 A3015 RMK A01 T01490065  RH  057%=      5-min Rain = 0
KAI1 041807Z 03011KT 15/07 A3015 RMK A01 T01530070  RH  058%=      5-min Rain = 0
KAI1 041808Z 02010KT 15/06 A3015 RMK A01 T01540064  RH  055%=      5-min Rain = 0
KAI1 041809Z 35011KT 15/07 A3015 RMK A01 T01530065  RH  056%=      5-min Rain = 0
KAI1 041810Z 35010KT 15/05 A3015 RMK A01 T01510053  RH  052%=      5-min Rain = 0
KAI1 041811Z 35008KT 15/05 A3015 RMK A01 T01480049  RH  052%=      5-min Rain = 0
KAI1 041812Z 35009KT 15/05 A3015 RMK A01 T01470054  RH  054%=      5-min Rain = 0
KAI1 041813Z 02007KT 15/06 A3015 RMK A01 T01490057  RH  054%=      5-min Rain = 0
KAI1 041814Z 03007KT 15/06 A3015 RMK A01 T01500055  RH  053%=      5-min Rain = 0
KAI1 041815Z 01005KT 15/05 A3015 RMK A01 T01500053  RH  052%=      5-min Rain = 0
KAI1 041816Z 02009KT 15/06 A3015 RMK A01 T01510061  RH  055%=      5-min Rain = 0
KAI1 041817Z 03013KT 15/06 A3015 RMK A01 T01530060  RH  054%=      5-min Rain = 0
KAI1 041818Z 03013KT 15/06 A3015 RMK A01 T01530062  RH  054%=      5-min Rain = 0
KAI1 041819Z 03014KT 15/06 A3016 RMK A01 T01540058  RH  052%=      5-min Rain = 0
KAI1 041820Z 02008KT 15/05 A3015 RMK A01 T01510050  RH  051%=      5-min Rain = 0
KAI1 041821Z 01007KT 15/05 A3015 RMK A01 T01490051  RH  052%=      5-min Rain = 0
KAI1 041822Z 04008KT 15/05 A3015 RMK A01 T01490052  RH  052%=      5-min Rain = 0
KAI1 041823Z 04009KT 15/06 A3015 RMK A01 T01500055  RH  053%=      5-min Rain = 0
KAI1 041824Z 04008KT 15/05 A3015 RMK A01 T01500050  RH  051%=      5-min Rain = 0
KAI1 041825Z 05008KT 15/05 A3015 RMK A01 T01490052  RH  052%=      5-min Rain = 0
KAI1 041826Z 05006KT 15/05 A3015 RMK A01 T01490052  RH  052%=      5-min Rain = 0
KAI1 041827Z 05005KT 15/05 A3015 RMK A01 T01490049  RH  051%=      5-min Rain = 0
KAI1 041828Z 02007KT 15/06 A3015 RMK A01 T01490056  RH  054%=      5-min Rain = 0
KAI1 041829Z 02009KT 15/05 A3015 RMK A01 T01500051  RH  051%=      5-min Rain = 0
KAI1 041830Z 02008KT 15/05 A3015 RMK A01 T01500054  RH  053%=      5-min Rain = 0
KAI1 041831Z 00008KT 15/06 A3015 RMK A01 T01520059  RH  054%=      5-min Rain = 0
KAI1 041832Z 35009KT 15/05 A3015 RMK A01 T01540049  RH  049%=      5-min Rain = 0
KAI1 041833Z 34005KT 15/05 A3015 RMK A01 T01540051  RH  050%=      5-min Rain = 0
KAI1 041834Z 34010KT 15/05 A3015 RMK A01 T01540048  RH  049%=      5-min Rain = 0
KAI1 041835Z 35007KT 15/04 A3015 RMK A01 T01530042  RH  048%=      5-min Rain = 0
KAI1 041836Z 34008KT 15/04 A3015 RMK A01 T01520044  RH  049%=      5-min Rain = 0
KAI1 041837Z 00006KT 15/05 A3015 RMK A01 T01520045  RH  049%=      5-min Rain = 0
KAI1 041838Z 03006KT 15/05 A3015 RMK A01 T01530048  RH  049%=      5-min Rain = 0
KAI1 041839Z 04006KT 16/05 A3015 RMK A01 T01560049  RH  049%=      5-min Rain = 0
KAI1 041840Z 02009G15KT 16/05 A3014 RMK A01 T01560049  RH  049%=      5-min Rain = 0
KAI1 041841Z 01012KT 16/05 A3014 RMK A01 T01580048  RH  048%=      5-min Rain = 0
KAI1 041842Z 01009KT 16/04 A3014 RMK A01 T01550039  RH  046%=      5-min Rain = 0
KAI1 041843Z 02009KT 15/05 A3014 RMK A01 T01540046  RH  049%=      5-min Rain = 0
KAI1 041844Z 02009KT 16/05 A3014 RMK A01 T01570054  RH  050%=      5-min Rain = 0
KAI1 041845Z 03011KT 16/06 A3014 RMK A01 T01600057  RH  050%=      5-min Rain = 0
KAI1 041846Z 03012KT 16/06 A3014 RMK A01 T01620056  RH  050%=      5-min Rain = 0
KAI1 041847Z 03011KT 16/05 A3014 RMK A01 T01630054  RH  049%=      5-min Rain = 0
KAI1 041848Z 02011KT 16/05 A3014 RMK A01 T01620046  RH  046%=      5-min Rain = 0
KAI1 041849Z 02012KT 16/04 A3014 RMK A01 T01580044  RH  047%=      5-min Rain = 0
KAI1 041850Z 04007KT 16/04 A3014 RMK A01 T01570044  RH  047%=      5-min Rain = 0
KAI1 041851Z 03006KT 16/05 A3014 RMK A01 T01570047  RH  048%=      5-min Rain = 0
KAI1 041852Z 03005KT 16/05 A3014 RMK A01 T01590045  RH  047%=      5-min Rain = 0
KAI1 041853Z 04007KT 16/04 A3014 RMK A01 T01580039  RH  045%=      5-min Rain = 0
KAI1 041854Z 02007KT 16/05 A3014 RMK A01 T01570045  RH  047%=      5-min Rain = 0
KAI1 041855Z 34008KT 16/05 A3014 RMK A01 T01580046  RH  047%=      5-min Rain = 0
KAI1 041856Z 35009KT 16/04 A3013 RMK A01 T01590041  RH  046%=      5-min Rain = 0
KAI1 041857Z 01009G14KT 16/05 A3014 RMK A01 T01590050  RH  048%=      5-min Rain = 0
KAI1 041858Z 05009KT 16/06 A3014 RMK A01 T01620057  RH  050%=      5-min Rain = 0
KAI1 041859Z 05009KT 16/05 A3014 RMK A01 T01630053  RH  048%=      5-min Rain = 0
KAI1 041900Z 02010KT 16/05 A3014 RMK A01 T01610053  RH  049%=      5-min Rain = 0
KAI1 041901Z 35011KT 16/05 A3014 RMK A01 T01620047  RH  047%=      5-min Rain = 0
KAI1 041902Z 34007G12KT 16/05 A3014 RMK A01 T01610048  RH  047%=      5-min Rain = 0
KAI1 041903Z 36012KT 16/05 A3014 RMK A01 T01620047  RH  046%=      5-min Rain = 0
KAI1 041904Z 00009KT 16/04 A3014 RMK A01 T01600043  RH  045%=      5-min Rain = 0
KAI1 041905Z 01007KT 16/05 A3014 RMK A01 T01590048  RH  048%=      5-min Rain = 0
KAI1 041906Z 01007KT 16/05 A3014 RMK A01 T01600046  RH  047%=      5-min Rain = 0
KAI1 041907Z 03006KT 16/04 A3014 RMK A01 T01590044  RH  046%=      5-min Rain = 0
KAI1 041908Z 01010KT 16/05 A3014 RMK A01 T01600051  RH  048%=      5-min Rain = 0
KAI1 041909Z 02011KT 16/05 A3014 RMK A01 T01640047  RH  046%=      5-min Rain = 0
KAI1 041910Z 03009KT 16/04 A3014 RMK A01 T01630042  RH  044%=      5-min Rain = 0
KAI1 041911Z 04007KT 16/04 A3014 RMK A01 T01610038  RH  044%=      5-min Rain = 0
KAI1 041912Z 03008KT 16/04 A3014 RMK A01 T01590040  RH  045%=      5-min Rain = 0
KAI1 041913Z 03006KT 16/04 A3014 RMK A01 T01590040  RH  045%=      5-min Rain = 0
KAI1 041914Z 02006KT 16/05 A3014 RMK A01 T01610046  RH  046%=      5-min Rain = 0
KAI1 041915Z 35008KT 16/04 A3014 RMK A01 T01630042  RH  045%=      5-min Rain = 0
KAI1 041916Z 35012KT 16/04 A3014 RMK A01 T01620041  RH  044%=      5-min Rain = 0
KAI1 041917Z 35009KT 16/04 A3014 RMK A01 T01620038  RH  044%=      5-min Rain = 0
KAI1 041918Z 00010KT 16/05 A3014 RMK A01 T01630051  RH  047%=      5-min Rain = 0
KAI1 041919Z 02011KT 17/05 A3014 RMK A01 T01660045  RH  044%=      5-min Rain = 0
KAI1 041920Z 04011KT 16/04 A3014 RMK A01 T01640043  RH  045%=      5-min Rain = 0
KAI1 041921Z 02008KT 16/04 A3014 RMK A01 T01630043  RH  045%=      5-min Rain = 0
KAI1 041922Z 05007KT 16/04 A3014 RMK A01 T01640043  RH  045%=      5-min Rain = 0
KAI1 041923Z 03008KT 16/04 A3014 RMK A01 T01640043  RH  045%=      5-min Rain = 0
KAI1 041924Z 02010KT 17/05 A3014 RMK A01 T01670048  RH  045%=      5-min Rain = 0
KAI1 041925Z 02010KT 17/04 A3014 RMK A01 T01680040  RH  043%=      5-min Rain = 0
KAI1 041926Z 02007KT 17/04 A3014 RMK A01 T01660036  RH  042%=      5-min Rain = 0
KAI1 041927Z 04006KT 16/04 A3014 RMK A01 T01640039  RH  043%=      5-min Rain = 0
KAI1 041928Z 01005KT 17/04 A3014 RMK A01 T01650039  RH  043%=      5-min Rain = 0
KAI1 041929Z 33007KT 17/04 A3014 RMK A01 T01660040  RH  043%=      5-min Rain = 0
KAI1 041930Z 32008KT 17/04 A3013 RMK A01 T01670038  RH  042%=      5-min Rain = 0
KAI1 041931Z 33009KT 17/04 A3013 RMK A01 T01660039  RH  043%=      5-min Rain = 0
KAI1 041932Z 01011KT 17/04 A3013 RMK A01 T01670042  RH  044%=      5-min Rain = 0
KAI1 041933Z 36011KT 17/04 A3013 RMK A01 T01670041  RH  043%=      5-min Rain = 0
KAI1 041934Z 01010G17KT 17/04 A3013 RMK A01 T01690041  RH  043%=      5-min Rain = 0
KAI1 041935Z 01011KT 17/04 A3013 RMK A01 T01690043  RH  043%=      5-min Rain = 0
KAI1 041936Z 35011KT 17/04 A3013 RMK A01 T01680039  RH  042%=      5-min Rain = 0
KAI1 041937Z 34013KT 17/04 A3013 RMK A01 T01690042  RH  043%=      5-min Rain = 0
KAI1 041938Z 34011KT 17/03 A3013 RMK A01 T01680034  RH  041%=      5-min Rain = 0
KAI1 041939Z 32008KT 17/04 A3013 RMK A01 T01670036  RH  042%=      5-min Rain = 0
KAI1 041940Z 00009KT 17/05 A3013 RMK A01 T01690046  RH  044%=      5-min Rain = 0
KAI1 041941Z 36009KT 17/04 A3013 RMK A01 T01720040  RH  042%=      5-min Rain = 0
KAI1 041942Z 36008KT 17/04 A3013 RMK A01 T01700036  RH  041%=      5-min Rain = 0
KAI1 041943Z 34004KT 17/03 A3013 RMK A01 T01670034  RH  041%=      5-min Rain = 0
KAI1 041944Z 33001KT 17/04 A3013 RMK A01 T01660037  RH  042%=      5-min Rain = 0
KAI1 041945Z 35007G12KT 17/04 A3013 RMK A01 T01670036  RH  042%=      5-min Rain = 0
KAI1 041946Z 36014KT 17/04 A3013 RMK A01 T01700044  RH  043%=      5-min Rain = 0
KAI1 041947Z 35014KT 17/04 A3013 RMK A01 T01720039  RH  041%=      5-min Rain = 0
KAI1 041948Z 36011KT 17/04 A3014 RMK A01 T01710037  RH  041%=      5-min Rain = 0
KAI1 041949Z 35011KT 17/03 A3013 RMK A01 T01710034  RH  040%=      5-min Rain = 0
KAI1 041950Z 35009KT 17/03 A3013 RMK A01 T01680033  RH  040%=      5-min Rain = 0
KAI1 041951Z 35010KT 17/04 A3013 RMK A01 T01680035  RH  041%=      5-min Rain = 0
KAI1 041952Z 01006KT 17/03 A3013 RMK A01 T01680032  RH  040%=      5-min Rain = 0
KAI1 041953Z 34007KT 17/03 A3013 RMK A01 T01670033  RH  041%=      5-min Rain = 0
KAI1 041954Z 34007KT 17/03 A3013 RMK A01 T01670033  RH  041%=      5-min Rain = 0
KAI1 041955Z 35008KT 17/03 A3013 RMK A01 T01670034  RH  041%=      5-min Rain = 0
KAI1 041956Z 34011KT 17/04 A3013 RMK A01 T01690040  RH  042%=      5-min Rain = 0
KAI1 041957Z 01012KT 17/04 A3013 RMK A01 T01720041  RH  042%=      5-min Rain = 0
KAI1 041958Z 35012KT 17/04 A3013 RMK A01 T01720039  RH  041%=      5-min Rain = 0
KAI1 041959Z 36009KT 17/04 A3013 RMK A01 T01720039  RH  041%=      5-min Rain = 0
KAI1 042000Z 01008KT 17/04 A3013 RMK A01 T01700036  RH  041%=      5-min Rain = 0
KAI1 042001Z 02005KT 17/04 A3013 RMK A01 T01700036  RH  041%=      5-min Rain = 0
KAI1 042002Z 01008KT 17/04 A3013 RMK A01 T01690036  RH  041%=      5-min Rain = 0
KAI1 042003Z 04005KT 17/04 A3013 RMK A01 T01690035  RH  041%=      5-min Rain = 0
KAI1 042004Z 03005KT 17/04 A3013 RMK A01 T01690041  RH  043%=      5-min Rain = 0
KAI1 042005Z 35004KT 17/04 A3013 RMK A01 T01710039  RH  041%=      5-min Rain = 0
KAI1 042006Z 01008G14KT 17/05 A3013 RMK A01 T01730045  RH  043%=      5-min Rain = 0
KAI1 042007Z 01014KT 18/04 A3013 RMK A01 T01750044  RH  042%=      5-min Rain = 0
KAI1 042008Z 01011KT 18/04 A3013 RMK A01 T01750042  RH  041%=      5-min Rain = 0
KAI1 042009Z 00013KT 18/05 A3013 RMK A01 T01760047  RH  042%=      5-min Rain = 0
KAI1 042010Z 00011KT 18/04 A3012 RMK A01 T01770041  RH  040%=      5-min Rain = 0
KAI1 042011Z 01010KT 18/04 A3013 RMK A01 T01750040  RH  041%=      5-min Rain = 0
KAI1 042012Z 00010KT 17/04 A3013 RMK A01 T01730039  RH  041%=      5-min Rain = 0
KAI1 042013Z 00006KT 17/04 A3012 RMK A01 T01730037  RH  040%=      5-min Rain = 0
KAI1 042014Z 05004KT 17/03 A3012 RMK A01 T01700031  RH  039%=      5-min Rain = 0
KAI1 042015Z 07003KT 17/03 A3012 RMK A01 T01690033  RH  040%=      5-min Rain = 0
KAI1 042016Z 04003KT 17/04 A3012 RMK A01 T01690038  RH  042%=      5-min Rain = 0
KAI1 042017Z 00002KT 17/04 A3012 RMK A01 T01730044  RH  043%=      5-min Rain = 0
KAI1 042018Z 01005G11KT 18/04 A3012 RMK A01 T01760040  RH  041%=      5-min Rain = 0
KAI1 042019Z 01009KT 18/04 A3012 RMK A01 T01760043  RH  041%=      5-min Rain = 0
KAI1 042020Z 01008KT 18/04 A3012 RMK A01 T01760044  RH  041%=      5-min Rain = 0
KAI1 042021Z 35008KT 18/04 A3012 RMK A01 T01760042  RH  041%=      5-min Rain = 0
KAI1 042022Z 02006KT 17/04 A3012 RMK A01 T01740040  RH  041%=      5-min Rain = 0
KAI1 042023Z 01005KT 17/04 A3012 RMK A01 T01740042  RH  041%=      5-min Rain = 0
KAI1 042024Z 35006KT 17/04 A3012 RMK A01 T01740039  RH  040%=      5-min Rain = 0
KAI1 042025Z 03006KT 17/04 A3012 RMK A01 T01740044  RH  042%=      5-min Rain = 0
KAI1 042026Z 02005KT 18/04 A3012 RMK A01 T01750038  RH  040%=      5-min Rain = 0
KAI1 042027Z 02005KT 17/04 A3012 RMK A01 T01730040  RH  041%=      5-min Rain = 0
KAI1 042028Z 35007KT 17/04 A3012 RMK A01 T01730042  RH  042%=      5-min Rain = 0
KAI1 042029Z 33010KT 18/04 A3012 RMK A01 T01750043  RH  042%=      5-min Rain = 0
KAI1 042030Z 33009KT 18/04 A3012 RMK A01 T01760041  RH  041%=      5-min Rain = 0
KAI1 042031Z 34006KT 18/04 A3012 RMK A01 T01750040  RH  040%=      5-min Rain = 0
KAI1 042032Z 35006KT 17/04 A3011 RMK A01 T01740039  RH  040%=      5-min Rain = 0
KAI1 042033Z 34010KT 18/04 A3011 RMK A01 T01750044  RH  042%=      5-min Rain = 0
KAI1 042034Z 34009KT 18/04 A3011 RMK A01 T01780042  RH  041%=      5-min Rain = 0
KAI1 042035Z 35007KT 18/04 A3011 RMK A01 T01770042  RH  040%=      5-min Rain = 0
KAI1 042036Z 36010KT 18/05 A3011 RMK A01 T01770045  RH  042%=      5-min Rain = 0
KAI1 042037Z 00007KT 18/04 A3011 RMK A01 T01780041  RH  040%=      5-min Rain = 0
KAI1 042038Z 33001KT 18/04 A3011 RMK A01 T01750038  RH  040%=      5-min Rain = 0
KAI1 042039Z 02006KT 18/04 A3011 RMK A01 T01750040  RH  041%=      5-min Rain = 0
KAI1 042040Z 03009KT 18/05 A3011 RMK A01 T01770045  RH  042%=      5-min Rain = 0
KAI1 042041Z 01010KT 18/04 A3011 RMK A01 T01780044  RH  041%=      5-min Rain = 0
KAI1 042042Z 34010KT 18/04 A3011 RMK A01 T01790043  RH  040%=      5-min Rain = 0
KAI1 042043Z 35007KT 18/04 A3011 RMK A01 T01790040  RH  040%=      5-min Rain = 0
KAI1 042044Z 36008KT 18/04 A3011 RMK A01 T01780041  RH  040%=      5-min Rain = 0
KAI1 042045Z 35007KT 18/04 A3011 RMK A01 T01770041  RH  040%=      5-min Rain = 0
KAI1 042046Z 36007KT 18/04 A3011 RMK A01 T01760043  RH  041%=      5-min Rain = 0
KAI1 042047Z 35007KT 18/05 A3011 RMK A01 T01800051  RH  042%=      5-min Rain = 0
KAI1 042048Z 35008G14KT 18/05 A3011 RMK A01 T01830047  RH  041%=      5-min Rain = 0
KAI1 042049Z 35005KT 18/05 A3011 RMK A01 T01840050  RH  041%=      5-min Rain = 0
KAI1 042050Z 34008KT 19/05 A3011 RMK A01 T01860047  RH  040%=      5-min Rain = 0
KAI1 042051Z 01010KT 19/05 A3011 RMK A01 T01850046  RH  040%=      5-min Rain = 0
KAI1 042052Z 01009KT 18/05 A3011 RMK A01 T01830046  RH  040%=      5-min Rain = 0
KAI1 042053Z 01011KT 18/05 A3011 RMK A01 T01830046  RH  040%=      5-min Rain = 0
KAI1 042054Z 00011KT 18/04 A3011 RMK A01 T01810041  RH  040%=      5-min Rain = 0
KAI1 042055Z 36011KT 18/04 A3011 RMK A01 T01770041  RH  040%=      5-min Rain = 0
KAI1 042056Z 35008KT 18/04 A3011 RMK A01 T01770040  RH  040%=      5-min Rain = 0
KAI1 042057Z 01008KT 18/04 A3011 RMK A01 T01780044  RH  041%=      5-min Rain = 0
KAI1 042058Z 36007KT 18/04 A3011 RMK A01 T01800041  RH  040%=      5-min Rain = 0
KAI1 042059Z 01006KT 18/04 A3011 RMK A01 T01790036  RH  039%=      5-min Rain = 0
KAI1 042100Z 35007KT 18/04 A3011 RMK A01 T01780039  RH  040%=      5-min Rain = 0
KAI1 042101Z 36009KT 18/04 A3011 RMK A01 T01770040  RH  040%=      5-min Rain = 0
KAI1 042102Z 01009KT 18/04 A3011 RMK A01 T01770042  RH  041%=      5-min Rain = 0
KAI1 042103Z 35009KT 18/04 A3011 RMK A01 T01780042  RH  040%=      5-min Rain = 0
KAI1 042104Z 01009KT 18/05 A3011 RMK A01 T01790045  RH  041%=      5-min Rain = 0
KAI1 042105Z 35008KT 18/04 A3011 RMK A01 T01800043  RH  040%=      5-min Rain = 0
KAI1 042106Z 32008KT 18/05 A3011 RMK A01 T01810046  RH  041%=      5-min Rain = 0
KAI1 042107Z 33005KT 18/04 A3011 RMK A01 T01820042  RH  039%=      5-min Rain = 0
KAI1 042108Z 35007KT 18/05 A301 RMK A01 T01830046  RH  040%=      5-min Rain = 0
KAI1 042109Z 00006KT 18/04 A301 RMK A01 T01840044  RH  039%=      5-min Rain = 0
KAI1 042110Z 32010G15KT 19/05 A301 RMK A01 T01850047  RH  040%=      5-min Rain = 0
KAI1 042111Z 32009KT 19/05 A301 RMK A01 T01870045  RH  039%=      5-min Rain = 0
KAI1 042112Z 32004KT 19/04 A301 RMK A01 T01860042  RH  038%=      5-min Rain = 0
KAI1 042113Z 31003KT 18/04 A301 RMK A01 T01840040  RH  038%=      5-min Rain = 0
KAI1 042114Z 31005KT 18/04 A301 RMK A01 T01830043  RH  039%=      5-min Rain = 0
KAI1 042115Z 33007G12KT 18/04 A301 RMK A01 T01840042  RH  039%=      5-min Rain = 0
KAI1 042116Z 33011KT 18/04 A301 RMK A01 T01840044  RH  040%=      5-min Rain = 0
KAI1 042117Z 33010KT 19/05 A301 RMK A01 T01870045  RH  039%=      5-min Rain = 0
KAI1 042118Z 33009KT 19/04 A301 RMK A01 T01870041  RH  038%=      5-min Rain = 0
KAI1 042119Z 33009KT 19/05 A301 RMK A01 T01860045  RH  039%=      5-min Rain = 0
KAI1 042120Z 35012KT 19/04 A301 RMK A01 T01870044  RH  039%=      5-min Rain = 0
KAI1 042121Z 36010KT 19/04 A301 RMK A01 T01860042  RH  038%=      5-min Rain = 0
KAI1 042122Z 36011KT 18/04 A301 RMK A01 T01840042  RH  039%=      5-min Rain = 0
KAI1 042123Z 34008KT 18/04 A301 RMK A01 T01820036  RH  038%=      5-min Rain = 0
KAI1 042124Z 34011KT 18/04 A301 RMK A01 T01800039  RH  039%=      5-min Rain = 0
KAI1 042125Z 36010KT 18/04 A301 RMK A01 T01810039  RH  039%=      5-min Rain = 0
KAI1 042126Z 35009KT 18/04 A301 RMK A01 T01810036  RH  038%=      5-min Rain = 0
KAI1 042127Z 35006KT 18/04 A301 RMK A01 T01790039  RH  039%=      5-min Rain = 0
KAI1 042128Z 35007KT 18/04 A301 RMK A01 T01810039  RH  039%=      5-min Rain = 0
KAI1 042129Z 35007KT 18/04 A301 RMK A01 T01820038  RH  038%=      5-min Rain = 0
KAI1 042130Z 35008G13KT 18/04 A3009 RMK A01 T01810038  RH  039%=      5-min Rain = 0
KAI1 042131Z 31011KT 18/04 A301 RMK A01 T01830043  RH  039%=      5-min Rain = 0
KAI1 042132Z 31011KT 18/04 A301 RMK A01 T01840038  RH  038%=      5-min Rain = 0
KAI1 042133Z 31010KT 19/04 A3009 RMK A01 T01850040  RH  038%=      5-min Rain = 0
KAI1 042134Z 32010KT 19/04 A3009 RMK A01 T01860038  RH  038%=      5-min Rain = 0
KAI1 042135Z 35007KT 18/04 A301 RMK A01 T01820037  RH  038%=      5-min Rain = 0
KAI1 042136Z 02008KT 18/04 A301 RMK A01 T01830041  RH  039%=      5-min Rain = 0
KAI1 042137Z 03007G12KT 18/04 A301 RMK A01 T01840037  RH  038%=      5-min Rain = 0
KAI1 042138Z 03007KT 18/04 A3009 RMK A01 T01820035  RH  038%=      5-min Rain = 0
KAI1 042139Z 36004KT 18/04 A3009 RMK A01 T01800035  RH  038%=      5-min Rain = 0
KAI1 042140Z 31005KT 18/04 A3009 RMK A01 T01800040  RH  039%=      5-min Rain = 0
KAI1 042141Z 31008G14KT 18/04 A3009 RMK A01 T01820037  RH  038%=      5-min Rain = 0
KAI1 042142Z 00009KT 18/04 A3009 RMK A01 T01830042  RH  039%=      5-min Rain = 0
KAI1 042143Z 00012KT 19/05 A3009 RMK A01 T01860048  RH  040%=      5-min Rain = 0
KAI1 042144Z 01012KT 19/05 A3009 RMK A01 T01890045  RH  039%=      5-min Rain = 0
KAI1 042145Z 02010KT 19/04 A3009 RMK A01 T01870040  RH  038%=      5-min Rain = 0
KAI1 042146Z 01005KT 18/04 A3009 RMK A01 T01830036  RH  038%=      5-min Rain = 0
KAI1 042147Z 04008KT 18/04 A3009 RMK A01 T01810037  RH  039%=      5-min Rain = 0
KAI1 042148Z 02007KT 18/04 A3009 RMK A01 T01810038  RH  039%=      5-min Rain = 0
KAI1 042149Z 04007KT 18/04 A3009 RMK A01 T01810038  RH  039%=      5-min Rain = 0
KAI1 042150Z 04007KT 18/04 A3009 RMK A01 T01820043  RH  040%=      5-min Rain = 0
KAI1 042151Z 03006KT 18/04 A3009 RMK A01 T01840042  RH  039%=      5-min Rain = 0
KAI1 042152Z 34006KT 18/04 A3009 RMK A01 T01840041  RH  039%=      5-min Rain = 0
KAI1 042153Z 32005KT 18/04 A3009 RMK A01 T01830039  RH  038%=      5-min Rain = 0
KAI1 042154Z 00008KT 18/04 A3009 RMK A01 T01830040  RH  039%=      5-min Rain = 0
KAI1 042155Z 00009KT 18/04 A3009 RMK A01 T01840042  RH  039%=      5-min Rain = 0
KAI1 042156Z 01008KT 19/04 A3009 RMK A01 T01860039  RH  038%=      5-min Rain = 0
KAI1 042157Z 04007KT 18/04 A3009 RMK A01 T01840037  RH  038%=      5-min Rain = 0
KAI1 042158Z 03006KT 18/04 A3009 RMK A01 T01810036  RH  038%=      5-min Rain = 0
KAI1 042159Z 36008KT 18/04 A3009 RMK A01 T01810039  RH  039%=      5-min Rain = 0
KAI1 042200Z 02008KT 18/04 A3009 RMK A01 T01810039  RH  039%=      5-min Rain = 0
KAI1 042201Z 02009KT 18/04 A3009 RMK A01 T01820043  RH  040%=      5-min Rain = 0
KAI1 042202Z 04009KT 19/04 A3009 RMK A01 T01850043  RH  039%=      5-min Rain = 0
KAI1 042203Z 04008KT 19/04 A3009 RMK A01 T01850041  RH  039%=      5-min Rain = 0
KAI1 042204Z 05008KT 19/04 A3009 RMK A01 T01850041  RH  039%=      5-min Rain = 0
KAI1 042205Z 05006KT 18/04 A3009 RMK A01 T01830039  RH  038%=      5-min Rain = 0
KAI1 042206Z 04007KT 18/04 A3008 RMK A01 T01820038  RH  038%=      5-min Rain = 0
KAI1 042207Z 02008KT 18/04 A3008 RMK A01 T01810038  RH  039%=      5-min Rain = 0
KAI1 042208Z 01006KT 18/04 A3008 RMK A01 T01800038  RH  039%=      5-min Rain = 0
KAI1 042209Z 03006KT 18/04 A3008 RMK A01 T01810040  RH  039%=      5-min Rain = 0
KAI1 042210Z 04005KT 18/04 A3008 RMK A01 T01830037  RH  038%=      5-min Rain = 0
KAI1 042211Z 04006KT 18/04 A3008 RMK A01 T01820039  RH  039%=      5-min Rain = 0
KAI1 042212Z 04004KT 18/04 A3008 RMK A01 T01820039  RH  039%=      5-min Rain = 0
KAI1 042213Z 04002KT 18/04 A3008 RMK A01 T01830038  RH  038%=      5-min Rain = 0
KAI1 042214Z 34003KT 18/04 A3008 RMK A01 T01830038  RH  038%=      5-min Rain = 0
KAI1 042215Z 33001KT 18/04 A3008 RMK A01 T01830039  RH  038%=      5-min Rain = 0
KAI1 042216Z 35006KT 19/04 A3008 RMK A01 T01850042  RH  039%=      5-min Rain = 0
KAI1 042217Z 00008G13KT 19/04 A3008 RMK A01 T01870040  RH  038%=      5-min Rain = 0
KAI1 042218Z 01009KT 19/04 A3009 RMK A01 T01860040  RH  038%=      5-min Rain = 0
KAI1 042219Z 01009KT 19/04 A3008 RMK A01 T01860039  RH  038%=      5-min Rain = 0
KAI1 042220Z 01012KT 19/04 A3008 RMK A01 T01860041  RH  038%=      5-min Rain = 0
KAI1 042221Z 02009KT 19/04 A3008 RMK A01 T01860038  RH  037%=      5-min Rain = 0
KAI1 042222Z 03010KT 19/04 A3008 RMK A01 T01850037  RH  037%=      5-min Rain = 0
KAI1 042223Z 01011KT 18/04 A3008 RMK A01 T01840040  RH  038%=      5-min Rain = 0
KAI1 042224Z 35010KT 19/04 A3008 RMK A01 T01870040  RH  038%=      5-min Rain = 0
KAI1 042225Z 35007KT 19/04 A3008 RMK A01 T01860036  RH  037%=      5-min Rain = 0
KAI1 042226Z 34005KT 19/04 A3008 RMK A01 T01850038  RH  038%=      5-min Rain = 0
KAI1 042227Z 34004KT 19/04 A3008 RMK A01 T01850037  RH  037%=      5-min Rain = 0
KAI1 042228Z 33007KT 19/04 A3008 RMK A01 T01850036  RH  037%=      5-min Rain = 0
KAI1 042229Z 33007KT 19/04 A3008 RMK A01 T01850037  RH  037%=      5-min Rain = 0
KAI1 042230Z 34009KT 19/04 A3008 RMK A01 T01850037  RH  037%=      5-min Rain = 0
KAI1 042231Z 01007KT 19/04 A3008 RMK A01 T01860037  RH  037%=      5-min Rain = 0
KAI1 042232Z 02004KT 19/03 A3008 RMK A01 T01850034  RH  037%=      5-min Rain = 0
KAI1 042233Z 01002KT 18/04 A3008 RMK A01 T01840035  RH  037%=      5-min Rain = 0
KAI1 042234Z 04003KT 18/04 A3008 RMK A01 T01840036  RH  037%=      5-min Rain = 0
KAI1 042235Z 05006KT 18/04 A3008 RMK A01 T01840036  RH  037%=      5-min Rain = 0
KAI1 042236Z 06005KT 18/03 A3008 RMK A01 T01840034  RH  037%=      5-min Rain = 0
KAI1 042237Z 04003KT 18/03 A3008 RMK A01 T01820033  RH  037%=      5-min Rain = 0
KAI1 042238Z 03003KT 18/03 A3008 RMK A01 T01810033  RH  037%=      5-min Rain = 0
KAI1 042239Z 05005KT 18/04 A3008 RMK A01 T01810037  RH  038%=      5-min Rain = 0
KAI1 042240Z 00005KT 18/04 A3008 RMK A01 T01840041  RH  039%=      5-min Rain = 0
KAI1 042241Z 01004KT 19/04 A3008 RMK A01 T01870042  RH  038%=      5-min Rain = 0
KAI1 042242Z 01004KT 19/04 A3008 RMK A01 T01880042  RH  038%=      5-min Rain = 0
KAI1 042243Z 01004KT 19/04 A3008 RMK A01 T01900039  RH  037%=      5-min Rain = 0
KAI1 042244Z 03004KT 19/04 A3008 RMK A01 T01880036  RH  036%=      5-min Rain = 0
KAI1 042245Z 35003KT 19/04 A3008 RMK A01 T01870037  RH  037%=      5-min Rain = 0
KAI1 042246Z 04006KT 19/04 A3008 RMK A01 T01860038  RH  038%=      5-min Rain = 0
KAI1 042247Z 03003KT 19/04 A3008 RMK A01 T01870038  RH  037%=      5-min Rain = 0
KAI1 042248Z 03003KT 19/04 A3008 RMK A01 T01870038  RH  037%=      5-min Rain = 0
KAI1 042249Z 04004G9KT 19/04 A3008 RMK A01 T01870038  RH  037%=      5-min Rain = 0
KAI1 042250Z 02008KT 19/04 A3008 RMK A01 T01880041  RH  038%=      5-min Rain = 0
KAI1 042251Z 02009KT 19/04 A3008 RMK A01 T01880041  RH  038%=      5-min Rain = 0
KAI1 042252Z 04007KT 19/04 A3008 RMK A01 T01880037  RH  037%=      5-min Rain = 0
KAI1 042253Z 08005KT 19/04 A3008 RMK A01 T01860036  RH  037%=      5-min Rain = 0
KAI1 042254Z 06006KT 19/04 A3008 RMK A01 T01860039  RH  038%=      5-min Rain = 0
KAI1 042255Z 01004KT 19/04 A3008 RMK A01 T01860036  RH  037%=      5-min Rain = 0
KAI1 042256Z 35006KT 19/04 A3008 RMK A01 T01860038  RH  037%=      5-min Rain = 0
KAI1 042257Z 35004KT 19/04 A3008 RMK A01 T01850035  RH  037%=      5-min Rain = 0
KAI1 042258Z 01001KT 19/04 A3008 RMK A01 T01850035  RH  037%=      5-min Rain = 0
KAI1 042259Z 31003KT 19/03 A3008 RMK A01 T01850034  RH  037%=      5-min Rain = 0
KAI1 042300Z 29003KT 19/03 A3008 RMK A01 T01850034  RH  037%=      5-min Rain = 0
KAI1 042301Z 27003KT 18/03 A3008 RMK A01 T01840034  RH  037%=      5-min Rain = 0
KAI1 042302Z 30002KT 19/04 A3008 RMK A01 T01850035  RH  037%=      5-min Rain = 0
KAI1 042303Z 03002KT 19/04 A3008 RMK A01 T01860039  RH  038%=      5-min Rain = 0
KAI1 042304Z 00002KT 19/04 A3008 RMK A01 T01880042  RH  038%=      5-min Rain = 0
KAI1 042305Z 04005KT 19/04 A3008 RMK A01 T01900039  RH  037%=      5-min Rain = 0
KAI1 042306Z 03004KT 19/04 A3008 RMK A01 T01880037  RH  037%=      5-min Rain = 0
KAI1 042307Z 03007KT 19/04 A3008 RMK A01 T01870038  RH  037%=      5-min Rain = 0
KAI1 042308Z 03006KT 19/04 A3008 RMK A01 T01860037  RH  037%=      5-min Rain = 0
KAI1 042309Z 03005KT 19/04 A3008 RMK A01 T01860037  RH  037%=      5-min Rain = 0
KAI1 042310Z 02003KT 19/04 A3008 RMK A01 T01860041  RH  038%=      5-min Rain = 0
KAI1 042311Z 36006KT 19/04 A3008 RMK A01 T01890042  RH  038%=      5-min Rain = 0
KAI1 042312Z 34004KT 19/04 A3008 RMK A01 T01890035  RH  036%=      5-min Rain = 0
KAI1 042313Z 33003KT 19/04 A3008 RMK A01 T01860035  RH  037%=      5-min Rain = 0
KAI1 042314Z 03004KT 19/04 A3008 RMK A01 T01860040  RH  038%=      5-min Rain = 0
KAI1 042315Z 03005KT 19/04 A3008 RMK A01 T01880039  RH  037%=      5-min Rain = 0
KAI1 042316Z 06004KT 19/04 A3008 RMK A01 T01880036  RH  036%=      5-min Rain = 0
KAI1 042317Z 06003KT 19/04 A3008 RMK A01 T01860037  RH  037%=      5-min Rain = 0
KAI1 042318Z 08002KT 19/04 A3008 RMK A01 T01870039  RH  038%=      5-min Rain = 0
KAI1 042319Z 05001KT 19/04 A3008 RMK A01 T01880038  RH  037%=      5-min Rain = 0
KAI1 042320Z 02003KT 19/04 A3008 RMK A01 T01890040  RH  037%=      5-min Rain = 0
KAI1 042321Z 01001KT 19/04 A3008 RMK A01 T01900037  RH  036%=      5-min Rain = 0
KAI1 042322Z 08005KT 19/04 A3008 RMK A01 T01900038  RH  036%=      5-min Rain = 0
KAI1 042323Z 06005KT 19/04 A3008 RMK A01 T01910042  RH  037%=      5-min Rain = 0
KAI1 042324Z 08005KT 19/04 A3008 RMK A01 T01910038  RH  036%=      5-min Rain = 0
KAI1 042325Z 09004KT 19/04 A3008 RMK A01 T01890037  RH  037%=      5-min Rain = 0
KAI1 042326Z 13003KT 19/04 A3008 RMK A01 T01870037  RH  037%=      5-min Rain = 0
KAI1 042327Z 13004KT 19/04 A3008 RMK A01 T01870038  RH  037%=      5-min Rain = 0
KAI1 042328Z 13004KT 19/04 A3008 RMK A01 T01880035  RH  036%=      5-min Rain = 0
KAI1 042329Z 13004KT 19/04 A3008 RMK A01 T01880035  RH  036%=      5-min Rain = 0
KAI1 042330Z 11003KT 19/03 A3008 RMK A01 T01870034  RH  036%=      5-min Rain = 0
KAI1 042331Z 13002KT 19/03 A3008 RMK A01 T01860034  RH  036%=      5-min Rain = 0
KAI1 042332Z 15001KT 19/03 A3008 RMK A01 T01850033  RH  036%=      5-min Rain = 0
KAI1 042333Z 16001KT 19/04 A3008 RMK A01 T01850035  RH  037%=      5-min Rain = 0
KAI1 042334Z 08000KT 19/04 A3008 RMK A01 T01870037  RH  037%=      5-min Rain = 0
KAI1 042335Z 02003KT 19/04 A3008 RMK A01 T01880037  RH  037%=      5-min Rain = 0
KAI1 042336Z 01004KT 19/04 A3008 RMK A01 T01890040  RH  037%=      5-min Rain = 0
KAI1 042337Z 00005KT 19/04 A3008 RMK A01 T01900036  RH  036%=      5-min Rain = 0
KAI1 042338Z 35005KT 19/03 A3008 RMK A01 T01880033  RH  036%=      5-min Rain = 0
KAI1 042339Z 00004KT 19/03 A3008 RMK A01 T01860034  RH  036%=      5-min Rain = 0
KAI1 042340Z 02003KT 19/03 A3008 RMK A01 T01860034  RH  036%=      5-min Rain = 0
KAI1 042341Z 04003KT 19/04 A3008 RMK A01 T01860036  RH  037%=      5-min Rain = 0
KAI1 042342Z 06005KT 19/04 A3008 RMK A01 T01860035  RH  037%=      5-min Rain = 0
KAI1 042343Z 06006KT 19/03 A3008 RMK A01 T01850033  RH  036%=      5-min Rain = 0
KAI1 042344Z 05003KT 18/04 A3008 RMK A01 T01840037  RH  038%=      5-min Rain = 0
KAI1 042345Z 03003KT 19/04 A3008 RMK A01 T01860038  RH  037%=      5-min Rain = 0
KAI1 042346Z 05000KT 19/04 A3008 RMK A01 T01870036  RH  037%=      5-min Rain = 0
KAI1 042347Z 01001KT 19/04 A3008 RMK A01 T01880037  RH  037%=      5-min Rain = 0
KAI1 042348Z 04003KT 19/04 A3008 RMK A01 T01890037  RH  036%=      5-min Rain = 0
KAI1 042349Z 06004KT 19/04 A3008 RMK A01 T01880036  RH  036%=      5-min Rain = 0
KAI1 042350Z 07003KT 19/04 A3008 RMK A01 T01880036  RH  036%=      5-min Rain = 0
KAI1 042351Z 06003KT 19/04 A3008 RMK A01 T01880037  RH  037%=      5-min Rain = 0
KAI1 042352Z 05002KT 19/04 A3008 RMK A01 T01880035  RH  036%=      5-min Rain = 0
KAI1 042353Z 06002KT 19/04 A3008 RMK A01 T01880036  RH  036%=      5-min Rain = 0
KAI1 042354Z 02002KT 19/04 A3008 RMK A01 T01880037  RH  037%=      5-min Rain = 0
KAI1 042355Z 35004KT 19/04 A3008 RMK A01 T01880039  RH  037%=      5-min Rain = 0
KAI1 042356Z 35005KT 19/04 A3008 RMK A01 T01890040  RH  037%=      5-min Rain = 0
KAI1 042357Z 02004KT 19/04 A3008 RMK A01 T01890036  RH  036%=      5-min Rain = 0
KAI1 042358Z 06004KT 19/04 A3008 RMK A01 T01890040  RH  037%=      5-min Rain = 0
KAI1 042359Z 05002KT 19/03 A3008 RMK A01 T01880034  RH  036%=      5-min Rain = 0
KAI1 050000Z 06001KT 19/03 A3008 RMK A01 T01870033  RH  036%=      5-min Rain = 0
KAI1 050001Z 00000KT 19/03 A3008 RMK A01 T01860033  RH  036%=      5-min Rain = 0
KAI1 050002Z 16000KT 19/03 A3008 RMK A01 T01860034  RH  036%=      5-min Rain = 0
KAI1 050003Z 12001KT 19/04 A3008 RMK A01 T01880036  RH  036%=      5-min Rain = 0
KAI1 050004Z 14001KT 19/04 A3008 RMK A01 T01890035  RH  036%=      5-min Rain = 0
KAI1 050005Z 15000KT 19/03 A3008 RMK A01 T01900034  RH  036%=      5-min Rain = 0
KAI1 050006Z 14001KT 19/03 A3008 RMK A01 T01890034  RH  036%=      5-min Rain = 0
KAI1 050007Z 16001KT 19/04 A3008 RMK A01 T01890035  RH  036%=      5-min Rain = 0
KAI1 050008Z 17000KT 19/03 A3008 RMK A01 T01890034  RH  036%=      5-min Rain = 0
KAI1 050009Z 17000KT 19/03 A3008 RMK A01 T01890034  RH  036%=      5-min Rain = 0
KAI1 050010Z 00000KT 19/04 A3008 RMK A01 T01880036  RH  036%=      5-min Rain = 0
KAI1 050011Z 05000KT 19/04 A3008 RMK A01 T01880035  RH  036%=      5-min Rain = 0
KAI1 050012Z 09002KT 19/04 A3008 RMK A01 T01890038  RH  037%=      5-min Rain = 0
KAI1 050013Z 07002KT 19/03 A3008 RMK A01 T01890034  RH  036%=      5-min Rain = 0
KAI1 050014Z 08003KT 19/04 A3008 RMK A01 T01880037  RH  037%=      5-min Rain = 0
KAI1 050015Z 06004KT 19/04 A3008 RMK A01 T01880036  RH  036%=      5-min Rain = 0
KAI1 050016Z 06002KT 19/03 A3008 RMK A01 T01870033  RH  036%=      5-min Rain = 0
KAI1 050017Z 05001KT 19/03 A3008 RMK A01 T01860033  RH  036%=      5-min Rain = 0
KAI1 050018Z 06002KT 19/04 A3008 RMK A01 T01850035  RH  037%=      5-min Rain = 0
KAI1 050019Z 35002KT 19/04 A3008 RMK A01 T01860037  RH  037%=      5-min Rain = 0
KAI1 050020Z 10001KT 19/04 A3008 RMK A01 T01860036  RH  037%=      5-min Rain = 0
KAI1 050021Z 05002KT 19/04 A3008 RMK A01 T01870037  RH  037%=      5-min Rain = 0
KAI1 050022Z 06002KT 19/03 A3008 RMK A01 T01870034  RH  036%=      5-min Rain = 0
KAI1 050023Z 06001KT 19/03 A3008 RMK A01 T01860033  RH  036%=      5-min Rain = 0
KAI1 050024Z 04001KT 19/03 A3008 RMK A01 T01850034  RH  037%=      5-min Rain = 0
KAI1 050025Z 02001KT 19/04 A3009 RMK A01 T01850038  RH  038%=      5-min Rain = 0
KAI1 050026Z 05001KT 19/03 A3009 RMK A01 T01850033  RH  037%=      5-min Rain = 0
KAI1 050027Z 35003KT 19/04 A3009 RMK A01 T01850036  RH  037%=      5-min Rain = 0
KAI1 050028Z 36002KT 19/04 A3009 RMK A01 T01850035  RH  037%=      5-min Rain = 0
KAI1 050029Z 35002KT 19/04 A3009 RMK A01 T01870039  RH  037%=      5-min Rain = 0
KAI1 050030Z 00003KT 19/04 A3009 RMK A01 T01870037  RH  037%=      5-min Rain = 0
KAI1 050031Z 01003KT 19/03 A3009 RMK A01 T01870034  RH  036%=      5-min Rain = 0
KAI1 050032Z 35004KT 19/03 A3009 RMK A01 T01860034  RH  036%=      5-min Rain = 0
KAI1 050033Z 35003KT 19/04 A3009 RMK A01 T01860035  RH  037%=      5-min Rain = 0
KAI1 050034Z 00003KT 19/04 A3009 RMK A01 T01850037  RH  037%=      5-min Rain = 0
KAI1 050035Z 00003KT 19/04 A3009 RMK A01 T01850037  RH  037%=      5-min Rain = 0
KAI1 050036Z 00002KT 19/04 A3009 RMK A01 T01850036  RH  037%=      5-min Rain = 0
KAI1 050037Z 03003KT 19/04 A3009 RMK A01 T01850037  RH  037%=      5-min Rain = 0
KAI1 050038Z 03003KT 19/04 A3009 RMK A01 T01850037  RH  037%=      5-min Rain = 0
KAI1 050039Z 03002KT 18/03 A3009 RMK A01 T01840034  RH  037%=      5-min Rain = 0
KAI1 050040Z 02002KT 18/03 A3009 RMK A01 T01840034  RH  037%=      5-min Rain = 0
KAI1 050041Z 04001KT 18/03 A3009 RMK A01 T01830032  RH  037%=      5-min Rain = 0
KAI1 050042Z 03001KT 18/03 A3009 RMK A01 T01820030  RH  036%=      5-min Rain = 0
KAI1 050043Z 00000KT 18/03 A3009 RMK A01 T01820031  RH  037%=      5-min Rain = 0
KAI1 050044Z 00000KT 18/03 A3009 RMK A01 T01820031  RH  037%=      5-min Rain = 0
KAI1 050045Z 00000KT 18/03 A3009 RMK A01 T01820031  RH  036%=      5-min Rain = 0
KAI1 050046Z 00000KT 18/03 A3009 RMK A01 T01830034  RH  037%=      5-min Rain = 0
KAI1 050047Z 00000KT 18/03 A3009 RMK A01 T01840033  RH  037%=      5-min Rain = 0
KAI1 050048Z 00000KT 19/03 A3009 RMK A01 T01850032  RH  036%=      5-min Rain = 0
KAI1 050049Z 00000KT 19/04 A3009 RMK A01 T01850035  RH  037%=      5-min Rain = 0
KAI1 050050Z 00000KT 19/04 A3009 RMK A01 T01860036  RH  037%=      5-min Rain = 0
KAI1 050051Z 01000KT 19/04 A3009 RMK A01 T01870035  RH  036%=      5-min Rain = 0
KAI1 050052Z 00000KT 19/04 A3009 RMK A01 T01870035  RH  037%=      5-min Rain = 0
KAI1 050053Z 00000KT 19/03 A3009 RMK A01 T01860034  RH  036%=      5-min Rain = 0
KAI1 050054Z 35000KT 19/03 A3009 RMK A01 T01850032  RH  036%=      5-min Rain = 0
KAI1 050055Z 00000KT 18/03 A3009 RMK A01 T01840034  RH  037%=      5-min Rain = 0
KAI1 050056Z 00000KT 18/04 A3009 RMK A01 T01840035  RH  037%=      5-min Rain = 0
KAI1 050057Z 35000KT 18/04 A3009 RMK A01 T01830035  RH  037%=      5-min Rain = 0
KAI1 050058Z 36001KT 18/04 A3009 RMK A01 T01830040  RH  039%=      5-min Rain = 0
KAI1 050059Z 00000KT 18/04 A3009 RMK A01 T01830040  RH  039%=      5-min Rain = 0
KAI1 050100Z 00000KT 18/04 A301 RMK A01 T01820035  RH  038%=      5-min Rain = 0
KAI1 050101Z 36000KT 18/04 A301 RMK A01 T01820038  RH  038%=      5-min Rain = 0
KAI1 050102Z 00000KT 18/04 A301 RMK A01 T01820044  RH  040%=      5-min Rain = 0
KAI1 050103Z 00000KT 18/04 A301 RMK A01 T01820044  RH  040%=      5-min Rain = 0
KAI1 050104Z 03000KT 18/04 A301 RMK A01 T01830040  RH  039%=      5-min Rain = 0
KAI1 050105Z 03000KT 18/04 A301 RMK A01 T01830038  RH  038%=      5-min Rain = 0
KAI1 050106Z 00000KT 18/04 A301 RMK A01 T01820037  RH  038%=      5-min Rain = 0
KAI1 050107Z 32000KT 18/04 A301 RMK A01 T01820040  RH  039%=      5-min Rain = 0
KAI1 050108Z 00000KT 18/04 A301 RMK A01 T01810040  RH  039%=      5-min Rain = 0
KAI1 050109Z 00000KT 18/04 A301 RMK A01 T01810039  RH  039%=      5-min Rain = 0
KAI1 050110Z 00000KT 18/04 A301 RMK A01 T01820038  RH  038%=      5-min Rain = 0
KAI1 050111Z 00000KT 18/04 A301 RMK A01 T01820040  RH  039%=      5-min Rain = 0
KAI1 050112Z 23000KT 18/04 A301 RMK A01 T01830040  RH  039%=      5-min Rain = 0
KAI1 050113Z 00000KT 18/04 A301 RMK A01 T01820039  RH  039%=      5-min Rain = 0
KAI1 050114Z 28000KT 18/04 A301 RMK A01 T01810037  RH  038%=      5-min Rain = 0
KAI1 050115Z 28000KT 18/04 A301 RMK A01 T01800035  RH  038%=      5-min Rain = 0
KAI1 050116Z 00000KT 18/04 A301 RMK A01 T01790035  RH  038%=      5-min Rain = 0
KAI1 050117Z 00000KT 18/04 A301 RMK A01 T01790036  RH  039%=      5-min Rain = 0
KAI1 050118Z 30000KT 18/04 A301 RMK A01 T01790043  RH  041%=      5-min Rain = 0
KAI1 050119Z 29000KT 18/04 A301 RMK A01 T01780040  RH  040%=      5-min Rain = 0
KAI1 050120Z 26001KT 18/04 A301 RMK A01 T01770037  RH  039%=      5-min Rain = 0
KAI1 050121Z 28000KT 18/04 A301 RMK A01 T01750040  RH  041%=      5-min Rain = 0
KAI1 050122Z 00000KT 17/05 A301 RMK A01 T01740045  RH  042%=      5-min Rain = 0
KAI1 050123Z 00000KT 17/04 A301 RMK A01 T01720043  RH  042%=      5-min Rain = 0
KAI1 050124Z 00000KT 17/04 A301 RMK A01 T01720038  RH  041%=      5-min Rain = 0
KAI1 050125Z 10000KT 17/04 A301 RMK A01 T01720036  RH  041%=      5-min Rain = 0
KAI1 050126Z 10001KT 17/04 A301 RMK A01 T01710041  RH  042%=      5-min Rain = 0
KAI1 050127Z 10002KT 17/05 A301 RMK A01 T01700047  RH  044%=      5-min Rain = 0
KAI1 050128Z 10001KT 17/05 A301 RMK A01 T01700051  RH  045%=      5-min Rain = 0
KAI1 050129Z 10002KT 17/05 A301 RMK A01 T01690045  RH  044%=      5-min Rain = 0
KAI1 050130Z 10002KT 17/04 A301 RMK A01 T01680038  RH  042%=      5-min Rain = 0
KAI1 050131Z 10002KT 17/04 A301 RMK A01 T01680039  RH  042%=      5-min Rain = 0
KAI1 050132Z 10002KT 17/04 A301 RMK A01 T01680041  RH  043%=      5-min Rain = 0
KAI1 050133Z 10003KT 17/05 A301 RMK A01 T01680048  RH  045%=      5-min Rain = 0
KAI1 050134Z 10002KT 17/05 A301 RMK A01 T01670049  RH  046%=      5-min Rain = 0
KAI1 050135Z 10002KT 17/05 A301 RMK A01 T01650054  RH  048%=      5-min Rain = 0
KAI1 050136Z 10002KT 16/05 A301 RMK A01 T01640050  RH  047%=      5-min Rain = 0
KAI1 050137Z 10002KT 16/05 A301 RMK A01 T01640050  RH  047%=      5-min Rain = 0
KAI1 050138Z 09002KT 16/06 A301 RMK A01 T01630057  RH  049%=      5-min Rain = 0
KAI1 050139Z 10002KT 16/05 A301 RMK A01 T01620052  RH  048%=      5-min Rain = 0
KAI1 050140Z 08002KT 16/05 A301 RMK A01 T01620052  RH  048%=      5-min Rain = 0
KAI1 050141Z 08002KT 16/05 A301 RMK A01 T01610052  RH  048%=      5-min Rain = 0
KAI1 050142Z 10002KT 16/05 A301 RMK A01 T01600053  RH  049%=      5-min Rain = 0
KAI1 050143Z 10003KT 16/05 A301 RMK A01 T01600050  RH  048%=      5-min Rain = 0
KAI1 050144Z 10002KT 16/05 A301 RMK A01 T01590047  RH  047%=      5-min Rain = 0
KAI1 050145Z 10002KT 16/05 A3011 RMK A01 T01600050  RH  048%=      5-min Rain = 0
KAI1 050146Z 09002KT 16/05 A3011 RMK A01 T01590050  RH  048%=      5-min Rain = 0
KAI1 050147Z 09002KT 16/05 A3011 RMK A01 T01580049  RH  048%=      5-min Rain = 0
KAI1 050148Z 10002KT 16/05 A3011 RMK A01 T01580051  RH  049%=      5-min Rain = 0
KAI1 050149Z 10002KT 16/06 A3011 RMK A01 T01570055  RH  050%=      5-min Rain = 0
KAI1 050150Z 10003KT 16/05 A3011 RMK A01 T01570052  RH  050%=      5-min Rain = 0
KAI1 050151Z 11003KT 16/05 A3011 RMK A01 T01560051  RH  050%=      5-min Rain = 0
KAI1 050152Z 10003KT 16/06 A3011 RMK A01 T01550062  RH  054%=      5-min Rain = 0
KAI1 050153Z 10003KT 15/07 A3011 RMK A01 T01530065  RH  056%=      5-min Rain = 0
KAI1 050154Z 10003KT 15/06 A3011 RMK A01 T01510058  RH  054%=      5-min Rain = 0
KAI1 050155Z 10003KT 15/05 A3011 RMK A01 T01500053  RH  052%=      5-min Rain = 0
KAI1 050156Z 10003KT 15/05 A3011 RMK A01 T01500050  RH  051%=      5-min Rain = 0
KAI1 050157Z 10003KT 15/05 A3011 RMK A01 T01500049  RH  051%=      5-min Rain = 0
KAI1 050158Z 10003KT 15/05 A3011 RMK A01 T01500049  RH  051%=      5-min Rain = 0
KAI1 050159Z 10003KT 15/05 A3011 RMK A01 T01500052  RH  052%=      5-min Rain = 0
KAI1 050200Z 09003KT 15/05 A3011 RMK A01 T01500051  RH  052%=      5-min Rain = 0
KAI1 050201Z 10003KT 15/05 A3011 RMK A01 T01500053  RH  052%=      5-min Rain = 0
KAI1 050202Z 10003KT 15/05 A3011 RMK A01 T01490053  RH  053%=      5-min Rain = 0
KAI1 050203Z 10003KT 15/05 A3011 RMK A01 T01480050  RH  052%=      5-min Rain = 0
KAI1 050204Z 10003KT 15/05 A3011 RMK A01 T01480050  RH  052%=      5-min Rain = 0
KAI1 050205Z 10003KT 15/05 A3011 RMK A01 T01480048  RH  051%=      5-min Rain = 0
KAI1 050206Z 10003KT 15/05 A3011 RMK A01 T01480048  RH  051%=      5-min Rain = 0
KAI1 050207Z 10003KT 15/05 A3011 RMK A01 T01480051  RH  052%=      5-min Rain = 0
KAI1 050208Z 10003KT 15/05 A3011 RMK A01 T01470050  RH  052%=      5-min Rain = 0
KAI1 050209Z 10003KT 15/05 A3011 RMK A01 T01470050  RH  052%=      5-min Rain = 0
KAI1 050210Z 10003KT 15/05 A3012 RMK A01 T01460048  RH  052%=      5-min Rain = 0
KAI1 050211Z 10003KT 15/04 A3012 RMK A01 T01460044  RH  050%=      5-min Rain = 0
KAI1 050212Z 09003KT 15/04 A3012 RMK A01 T01470040  RH  049%=      5-min Rain = 0
KAI1 050213Z 09002KT 15/04 A3012 RMK A01 T01490036  RH  047%=      5-min Rain = 0
KAI1 050214Z 09003KT 15/04 A3012 RMK A01 T01510038  RH  047%=      5-min Rain = 0
KAI1 050215Z 09003KT 15/04 A3012 RMK A01 T01510037  RH  046%=      5-min Rain = 0
KAI1 050216Z 09003KT 15/04 A3012 RMK A01 T01520038  RH  047%=      5-min Rain = 0
KAI1 050217Z 09003KT 15/04 A3012 RMK A01 T01520036  RH  046%=      5-min Rain = 0
KAI1 050218Z 09003KT 15/04 A3012 RMK A01 T01520037  RH  046%=      5-min Rain = 0
KAI1 050219Z 09003KT 15/04 A3012 RMK A01 T01520040  RH  047%=      5-min Rain = 0
KAI1 050220Z 09003KT 15/04 A3012 RMK A01 T01510042  RH  048%=      5-min Rain = 0
KAI1 050221Z 09003KT 15/04 A3012 RMK A01 T01500037  RH  047%=      5-min Rain = 0
KAI1 050222Z 09003KT 15/04 A3012 RMK A01 T01510038  RH  047%=      5-min Rain = 0
KAI1 050223Z 09003KT 15/04 A3012 RMK A01 T01500043  RH  048%=      5-min Rain = 0
KAI1 050224Z 09003KT 15/04 A3012 RMK A01 T01490040  RH  048%=      5-min Rain = 0
KAI1 050225Z 09003KT 15/04 A3012 RMK A01 T01490039  RH  048%=      5-min Rain = 0
KAI1 050226Z 09003KT 15/04 A3012 RMK A01 T01490038  RH  047%=      5-min Rain = 0
KAI1 050227Z 09003KT 15/04 A3012 RMK A01 T01500037  RH  047%=      5-min Rain = 0
KAI1 050228Z 09003KT 15/04 A3012 RMK A01 T01510037  RH  046%=      5-min Rain = 0
KAI1 050229Z 09003KT 15/04 A3012 RMK A01 T01520039  RH  047%=      5-min Rain = 0
KAI1 050230Z 09003KT 15/04 A3012 RMK A01 T01520041  RH  048%=      5-min Rain = 0
KAI1 050231Z 09003KT 15/04 A3012 RMK A01 T01510042  RH  048%=      5-min Rain = 0
KAI1 050232Z 09002KT 15/04 A3012 RMK A01 T01500043  RH  049%=      5-min Rain = 0
KAI1 050233Z 09002KT 15/05 A3012 RMK A01 T01490045  RH  050%=      5-min Rain = 0
KAI1 050234Z 09003KT 15/04 A3012 RMK A01 T01470044  RH  050%=      5-min Rain = 0
KAI1 050235Z 09003KT 15/04 A3012 RMK A01 T01460044  RH  050%=      5-min Rain = 0
KAI1 050236Z 09003KT 15/04 A3012 RMK A01 T01450043  RH  050%=      5-min Rain = 0
KAI1 050237Z 09003KT 15/04 A3013 RMK A01 T01450042  RH  050%=      5-min Rain = 0
KAI1 050238Z 09003KT 15/04 A3013 RMK A01 T01450041  RH  049%=      5-min Rain = 0
KAI1 050239Z 09003KT 15/04 A3013 RMK A01 T01460041  RH  049%=      5-min Rain = 0
KAI1 050240Z 09003KT 15/04 A3013 RMK A01 T01460042  RH  050%=      5-min Rain = 0
KAI1 050241Z 09003KT 15/04 A3013 RMK A01 T01460043  RH  050%=      5-min Rain = 0
KAI1 050242Z 09003KT 15/04 A3013 RMK A01 T01450043  RH  050%=      5-min Rain = 0
KAI1 050243Z 09004KT 14/04 A3013 RMK A01 T01440044  RH  051%=      5-min Rain = 0
KAI1 050244Z 08005KT 14/05 A3013 RMK A01 T01430047  RH  052%=      5-min Rain = 0
KAI1 050245Z 08006KT 14/05 A3013 RMK A01 T01410050  RH  054%=      5-min Rain = 0
KAI1 050246Z 08006KT 14/05 A3013 RMK A01 T01390051  RH  055%=      5-min Rain = 0
KAI1 050247Z 09007KT 14/05 A3013 RMK A01 T01380049  RH  055%=      5-min Rain = 0
KAI1 050248Z 09007KT 14/05 A3013 RMK A01 T01380050  RH  055%=      5-min Rain = 0
KAI1 050249Z 10007KT 14/05 A3013 RMK A01 T01370052  RH  056%=      5-min Rain = 0
KAI1 050250Z 10007KT 14/05 A3013 RMK A01 T01360054  RH  057%=      5-min Rain = 0
KAI1 050251Z 10007KT 13/05 A3013 RMK A01 T01340054  RH  058%=      5-min Rain = 0
KAI1 050252Z 10007KT 13/06 A3013 RMK A01 T01330056  RH  059%=      5-min Rain = 0
KAI1 050253Z 10007KT 13/06 A3013 RMK A01 T01310057  RH  061%=      5-min Rain = 0
KAI1 050254Z 10007KT 13/06 A3013 RMK A01 T01290057  RH  061%=      5-min Rain = 0
KAI1 050255Z 10008KT 13/06 A3013 RMK A01 T01280058  RH  062%=      5-min Rain = 0
KAI1 050256Z 11009KT 13/06 A3013 RMK A01 T01280061  RH  064%=      5-min Rain = 0
KAI1 050257Z 10009KT 13/07 A3013 RMK A01 T01270065  RH  066%=      5-min Rain = 0
KAI1 050258Z 10009KT 13/07 A3013 RMK A01 T01280066  RH  066%=      5-min Rain = 0
KAI1 050259Z 11009KT 13/07 A3013 RMK A01 T01280065  RH  065%=      5-min Rain = 0
KAI1 050300Z 11009KT 13/06 A3013 RMK A01 T01290064  RH  064%=      5-min Rain = 0
KAI1 050301Z 11009KT 13/06 A3013 RMK A01 T01300062  RH  063%=      5-min Rain = 0
KAI1 050302Z 11009KT 13/06 A3013 RMK A01 T01310062  RH  063%=      5-min Rain = 0
KAI1 050303Z 11009KT 13/06 A3013 RMK A01 T01310063  RH  063%=      5-min Rain = 0
KAI1 050304Z 12010KT 13/06 A3013 RMK A01 T01320064  RH  064%=      5-min Rain = 0
KAI1 050305Z 12009KT 13/06 A3013 RMK A01 T01330064  RH  063%=      5-min Rain = 0
KAI1 050306Z 12009KT 13/07 A3013 RMK A01 T01340065  RH  063%=      5-min Rain = 0
KAI1 050307Z 11009KT 14/06 A3013 RMK A01 T01350064  RH  063%=      5-min Rain = 0
KAI1 050308Z 11009KT 14/07 A3013 RMK A01 T01350065  RH  062%=      5-min Rain = 0
KAI1 050309Z 11009KT 14/06 A3013 RMK A01 T01350064  RH  062%=      5-min Rain = 0
KAI1 050310Z 11008KT 14/06 A3013 RMK A01 T01360063  RH  061%=      5-min Rain = 0
KAI1 050311Z 11008KT 14/06 A3013 RMK A01 T01360063  RH  061%=      5-min Rain = 0
KAI1 050312Z 11008KT 14/06 A3013 RMK A01 T01350063  RH  062%=      5-min Rain = 0
KAI1 050313Z 11008KT 13/06 A3013 RMK A01 T01330063  RH  062%=      5-min Rain = 0
KAI1 050314Z 11008KT 13/06 A3013 RMK A01 T01320064  RH  063%=      5-min Rain = 0
KAI1 050315Z 11007KT 13/06 A3013 RMK A01 T01310064  RH  064%=      5-min Rain = 0
KAI1 050316Z 11007KT 13/07 A3013 RMK A01 T01300065  RH  065%=      5-min Rain = 0
KAI1 050317Z 11007KT 13/07 A3013 RMK A01 T01290066  RH  065%=      5-min Rain = 0
KAI1 050318Z 11007KT 13/07 A3013 RMK A01 T01290067  RH  066%=      5-min Rain = 0
KAI1 050319Z 11007KT 13/07 A3014 RMK A01 T01280068  RH  066%=      5-min Rain = 0
KAI1 050320Z 11007KT 13/07 A3014 RMK A01 T01280068  RH  067%=      5-min Rain = 0
KAI1 050321Z 11007KT 13/07 A3014 RMK A01 T01270068  RH  067%=      5-min Rain = 0
KAI1 050322Z 11007KT 13/07 A3014 RMK A01 T01270068  RH  068%=      5-min Rain = 0
KAI1 050323Z 11007KT 13/07 A3014 RMK A01 T01260069  RH  068%=      5-min Rain = 0
KAI1 050324Z 11007KT 13/07 A3014 RMK A01 T01260069  RH  068%=      5-min Rain = 0
KAI1 050325Z 11007KT 13/07 A3014 RMK A01 T01260069  RH  068%=      5-min Rain = 0
KAI1 050326Z 11007KT 13/07 A3014 RMK A01 T01260070  RH  069%=      5-min Rain = 0
KAI1 050327Z 11007KT 13/07 A3014 RMK A01 T01250070  RH  069%=      5-min Rain = 0
KAI1 050328Z 11007KT 13/07 A3014 RMK A01 T01250071  RH  070%=      5-min Rain = 0
KAI1 050329Z 11007KT 12/07 A3014 RMK A01 T01240071  RH  070%=      5-min Rain = 0
KAI1 050330Z 11007KT 12/07 A3014 RMK A01 T01230072  RH  071%=      5-min Rain = 0
KAI1 050331Z 11007KT 12/07 A3014 RMK A01 T01230072  RH  071%=      5-min Rain = 0
KAI1 050332Z 11007KT 12/07 A3014 RMK A01 T01220072  RH  071%=      5-min Rain = 0
KAI1 050333Z 11007KT 12/07 A3014 RMK A01 T01220073  RH  072%=      5-min Rain = 0
KAI1 050334Z 11007KT 12/07 A3014 RMK A01 T01210072  RH  072%=      5-min Rain = 0
KAI1 050335Z 11007KT 12/07 A3014 RMK A01 T01210073  RH  072%=      5-min Rain = 0
KAI1 050336Z 11007KT 12/07 A3014 RMK A01 T01210073  RH  072%=      5-min Rain = 0
KAI1 050337Z 11007KT 12/07 A3014 RMK A01 T01210073  RH  073%=      5-min Rain = 0
KAI1 050338Z 11007KT 12/07 A3014 RMK A01 T01200073  RH  073%=      5-min Rain = 0
KAI1 050339Z 11007KT 12/07 A3014 RMK A01 T01200073  RH  073%=      5-min Rain = 0
KAI1 050340Z 11007KT 12/07 A3014 RMK A01 T01200073  RH  073%=      5-min Rain = 0
KAI1 050341Z 11007KT 12/07 A3014 RMK A01 T01200073  RH  073%=      5-min Rain = 0
KAI1 050342Z 10007KT 12/07 A3014 RMK A01 T01200072  RH  073%=      5-min Rain = 0
KAI1 050343Z 10007KT 12/07 A3014 RMK A01 T01190072  RH  073%=      5-min Rain = 0
KAI1 050344Z 10007KT 12/07 A3014 RMK A01 T01190071  RH  073%=      5-min Rain = 0
KAI1 050345Z 11007KT 12/07 A3014 RMK A01 T01180071  RH  073%=      5-min Rain = 0
KAI1 050346Z 11007KT 12/07 A3014 RMK A01 T01180071  RH  073%=      5-min Rain = 0
KAI1 050347Z 11007KT 12/07 A3014 RMK A01 T01170070  RH  073%=      5-min Rain = 0
KAI1 050348Z 11007KT 12/07 A3014 RMK A01 T01170071  RH  073%=      5-min Rain = 0
KAI1 050349Z 11007KT 12/07 A3014 RMK A01 T01160071  RH  073%=      5-min Rain = 0
KAI1 050350Z 11006KT 12/07 A3014 RMK A01 T01160071  RH  074%=      5-min Rain = 0
KAI1 050351Z 11006KT 12/07 A3014 RMK A01 T01160071  RH  074%=      5-min Rain = 0
KAI1 050352Z 11006KT 12/07 A3014 RMK A01 T01160072  RH  074%=      5-min Rain = 0
KAI1 050353Z 11006KT 12/07 A3014 RMK A01 T01160072  RH  074%=      5-min Rain = 0
KAI1 050354Z 11006KT 12/07 A3014 RMK A01 T01160072  RH  075%=      5-min Rain = 0
KAI1 050355Z 11007KT 12/07 A3014 RMK A01 T01160072  RH  074%=      5-min Rain = 0
KAI1 050356Z 11007KT 12/07 A3014 RMK A01 T01150071  RH  074%=      5-min Rain = 0
KAI1 050357Z 11007KT 12/07 A3014 RMK A01 T01150071  RH  074%=      5-min Rain = 0
KAI1 050358Z 11007KT 12/07 A3014 RMK A01 T01160070  RH  073%=      5-min Rain = 0
KAI1 050359Z 11007KT 12/07 A3014 RMK A01 T01150069  RH  073%=      5-min Rain = 0
KAI1 050400Z 11007KT 12/07 A3014 RMK A01 T01160068  RH  073%=      5-min Rain = 0
KAI1 050401Z 11007KT 12/07 A3014 RMK A01 T01160069  RH  073%=      5-min Rain = 0
KAI1 050402Z 11007KT 12/07 A3014 RMK A01 T01160069  RH  073%=      5-min Rain = 0
KAI1 050403Z 11007KT 12/07 A3014 RMK A01 T01160069  RH  073%=      5-min Rain = 0
KAI1 050404Z 11006KT 12/07 A3014 RMK A01 T01150069  RH  073%=      5-min Rain = 0
KAI1 050405Z 11006KT 12/07 A3014 RMK A01 T01150069  RH  073%=      5-min Rain = 0
KAI1 050406Z 11007KT 12/07 A3014 RMK A01 T01150069  RH  074%=      5-min Rain = 0
KAI1 050407Z 11007KT 11/07 A3014 RMK A01 T01140069  RH  074%=      5-min Rain = 0
KAI1 050408Z 11007KT 11/07 A3014 RMK A01 T01140069  RH  074%=      5-min Rain = 0
KAI1 050409Z 11007KT 11/07 A3014 RMK A01 T01140069  RH  074%=      5-min Rain = 0
KAI1 050410Z 11007KT 11/07 A3014 RMK A01 T01130068  RH  074%=      5-min Rain = 0
KAI1 050411Z 11007KT 11/07 A3014 RMK A01 T01130068  RH  074%=      5-min Rain = 0
KAI1 050412Z 11007KT 11/07 A3014 RMK A01 T01130068  RH  074%=      5-min Rain = 0
KAI1 050413Z 11007KT 11/07 A3014 RMK A01 T01120068  RH  074%=      5-min Rain = 0
KAI1 050414Z 11007KT 11/07 A3014 RMK A01 T01120068  RH  074%=      5-min Rain = 0
KAI1 050415Z 11007KT 11/07 A3014 RMK A01 T01110067  RH  074%=      5-min Rain = 0
KAI1 050416Z 11007KT 11/07 A3014 RMK A01 T01120068  RH  074%=      5-min Rain = 0
KAI1 050417Z 12007KT 11/07 A3014 RMK A01 T01120068  RH  075%=      5-min Rain = 0
KAI1 050418Z 12007KT 11/07 A3014 RMK A01 T01110068  RH  075%=      5-min Rain = 0
KAI1 050419Z 12007KT 11/07 A3014 RMK A01 T01110069  RH  075%=      5-min Rain = 0
KAI1 050420Z 12007KT 11/07 A3014 RMK A01 T01110069  RH  075%=      5-min Rain = 0
KAI1 050421Z 12007KT 11/07 A3014 RMK A01 T01110069  RH  076%=      5-min Rain = 0
KAI1 050422Z 12007KT 11/07 A3014 RMK A01 T01110069  RH  076%=      5-min Rain = 0
KAI1 050423Z 12007KT 11/07 A3014 RMK A01 T01110069  RH  076%=      5-min Rain = 0
KAI1 050424Z 12007KT 11/07 A3014 RMK A01 T01110069  RH  075%=      5-min Rain = 0
KAI1 050425Z 12007KT 11/07 A3014 RMK A01 T01110069  RH  075%=      5-min Rain = 0
KAI1 050426Z 12007KT 11/07 A3014 RMK A01 T01110069  RH  075%=      5-min Rain = 0
KAI1 050427Z 12006KT 11/07 A3014 RMK A01 T01110070  RH  076%=      5-min Rain = 0
KAI1 050428Z 12006KT 11/07 A3014 RMK A01 T01110070  RH  076%=      5-min Rain = 0
KAI1 050429Z 12006KT 11/07 A3014 RMK A01 T01100070  RH  076%=      5-min Rain = 0
KAI1 050430Z 12006KT 11/07 A3014 RMK A01 T01100070  RH  076%=      5-min Rain = 0
KAI1 050431Z 12006KT 11/07 A3014 RMK A01 T01100069  RH  076%=      5-min Rain = 0
KAI1 050432Z 12006KT 11/07 A3014 RMK A01 T01100070  RH  076%=      5-min Rain = 0
KAI1 050433Z 12006KT 11/07 A3014 RMK A01 T01100070  RH  076%=      5-min Rain = 0
KAI1 050434Z 12006KT 11/07 A3014 RMK A01 T01090070  RH  077%=      5-min Rain = 0
KAI1 050435Z 12006KT 11/07 A3014 RMK A01 T01090070  RH  077%=      5-min Rain = 0
KAI1 050436Z 12006KT 11/07 A3014 RMK A01 T01090070  RH  077%=      5-min Rain = 0
KAI1 050437Z 12006KT 11/07 A3014 RMK A01 T01080069  RH  077%=      5-min Rain = 0
KAI1 050438Z 12006KT 11/07 A3014 RMK A01 T01080069  RH  077%=      5-min Rain = 0
KAI1 050439Z 12006KT 11/07 A3014 RMK A01 T01080069  RH  077%=      5-min Rain = 0
KAI1 050440Z 12006KT 11/07 A3014 RMK A01 T01080069  RH  077%=      5-min Rain = 0
KAI1 050441Z 12007KT 11/07 A3014 RMK A01 T01080068  RH  076%=      5-min Rain = 0
KAI1 050442Z 12007KT 11/07 A3014 RMK A01 T01080067  RH  076%=      5-min Rain = 0
KAI1 050443Z 12006KT 11/07 A3014 RMK A01 T01080067  RH  076%=      5-min Rain = 0
KAI1 050444Z 12006KT 11/07 A3014 RMK A01 T01080068  RH  076%=      5-min Rain = 0
KAI1 050445Z 12006KT 11/07 A3014 RMK A01 T01080068  RH  076%=      5-min Rain = 0
KAI1 050446Z 12006KT 11/07 A3014 RMK A01 T01080067  RH  076%=      5-min Rain = 0
KAI1 050447Z 12007KT 11/07 A3014 RMK A01 T01080068  RH  076%=      5-min Rain = 0
KAI1 050448Z 12007KT 11/07 A3014 RMK A01 T01070067  RH  076%=      5-min Rain = 0
KAI1 050449Z 12007KT 11/07 A3014 RMK A01 T01070067  RH  076%=      5-min Rain = 0
KAI1 050450Z 12007KT 11/07 A3014 RMK A01 T01070067  RH  076%=      5-min Rain = 0
KAI1 050451Z 12007KT 11/07 A3014 RMK A01 T01070067  RH  076%=      5-min Rain = 0
KAI1 050452Z 12007KT 11/07 A3014 RMK A01 T01060067  RH  077%=      5-min Rain = 0
KAI1 050453Z 12007KT 11/07 A3014 RMK A01 T01060067  RH  077%=      5-min Rain = 0
KAI1 050454Z 12007KT 11/07 A3014 RMK A01 T01060068  RH  077%=      5-min Rain = 0
KAI1 050455Z 12007KT 11/07 A3014 RMK A01 T01050068  RH  077%=      5-min Rain = 0
KAI1 050456Z 12007KT 11/07 A3014 RMK A01 T01050068  RH  078%=      5-min Rain = 0
KAI1 050457Z 12007KT 11/07 A3014 RMK A01 T01050067  RH  077%=      5-min Rain = 0
KAI1 050458Z 12007KT 11/07 A3014 RMK A01 T01050067  RH  077%=      5-min Rain = 0
KAI1 050459Z 12007KT 11/07 A3014 RMK A01 T01050066  RH  077%=      5-min Rain = 0

Page generated in 0.1148 seconds.